Observation data for Clyde on 08/13/2019      Previous  Date       Current Mesonet Observations  Soil Data  Daily Summary Page  Observations in Plain Language
KCL2 130500Z 16011KT 30/17 A2989 RMK A01 T03000166  RH  044%=      5-min Rain = 0
KCL2 130501Z 16009KT 30/17 A2989 RMK A01 T03000166  RH  044%=      5-min Rain = 0
KCL2 130502Z 16011G16KT 30/17 A2989 RMK A01 T02990166  RH  045%=      5-min Rain = 0
KCL2 130503Z 16010KT 30/17 A2989 RMK A01 T02990166  RH  045%=      5-min Rain = 0
KCL2 130504Z 16010KT 30/17 A2989 RMK A01 T02980165  RH  045%=      5-min Rain = 0
KCL2 130505Z 16009KT 30/17 A2989 RMK A01 T02980165  RH  045%=      5-min Rain = 0
KCL2 130506Z 16011KT 30/17 A2989 RMK A01 T02980165  RH  045%=      5-min Rain = 0
KCL2 130507Z 16011KT 30/17 A2989 RMK A01 T02980165  RH  045%=      5-min Rain = 0
KCL2 130508Z 16010KT 30/17 A2989 RMK A01 T02970165  RH  045%=      5-min Rain = 0
KCL2 130509Z 16009KT 30/17 A299 RMK A01 T02970165  RH  045%=      5-min Rain = 0
KCL2 130510Z 16010KT 30/17 A2989 RMK A01 T02970165  RH  045%=      5-min Rain = 0
KCL2 130511Z 16009KT 30/17 A2989 RMK A01 T02970165  RH  045%=      5-min Rain = 0
KCL2 130512Z 16010KT 30/17 A2989 RMK A01 T02970165  RH  045%=      5-min Rain = 0
KCL2 130513Z 16009KT 30/16 A2989 RMK A01 T02960164  RH  045%=      5-min Rain = 0
KCL2 130514Z 16010KT 30/16 A2989 RMK A01 T02960164  RH  045%=      5-min Rain = 0
KCL2 130515Z 16011KT 30/16 A2989 RMK A01 T02960164  RH  045%=      5-min Rain = 0
KCL2 130516Z 16010KT 30/16 A2989 RMK A01 T02960164  RH  045%=      5-min Rain = 0
KCL2 130517Z 16011KT 30/16 A2989 RMK A01 T02960164  RH  045%=      5-min Rain = 0
KCL2 130518Z 16009KT 30/16 A2989 RMK A01 T02960164  RH  045%=      5-min Rain = 0
KCL2 130519Z 16009KT 30/16 A2989 RMK A01 T02960164  RH  045%=      5-min Rain = 0
KCL2 130520Z 16010KT 30/16 A2989 RMK A01 T02950164  RH  045%=      5-min Rain = 0
KCL2 130521Z 16009KT 29/16 A2989 RMK A01 T02940164  RH  045%=      5-min Rain = 0
KCL2 130522Z 16011KT 29/16 A2989 RMK A01 T02940164  RH  045%=      5-min Rain = 0
KCL2 130523Z 17010KT 29/16 A2989 RMK A01 T02940163  RH  045%=      5-min Rain = 0
KCL2 130524Z 17008KT 29/16 A2989 RMK A01 T02940163  RH  045%=      5-min Rain = 0
KCL2 130525Z 17011KT 29/16 A2989 RMK A01 T02940163  RH  045%=      5-min Rain = 0
KCL2 130526Z 16011KT 29/16 A2989 RMK A01 T02940164  RH  045%=      5-min Rain = 0
KCL2 130527Z 16009KT 29/16 A2989 RMK A01 T02940163  RH  045%=      5-min Rain = 0
KCL2 130528Z 16010KT 29/16 A2989 RMK A01 T02940163  RH  045%=      5-min Rain = 0
KCL2 130529Z 16010KT 29/16 A2989 RMK A01 T02930163  RH  045%=      5-min Rain = 0
KCL2 130530Z 16010KT 29/16 A2989 RMK A01 T02930163  RH  045%=      5-min Rain = 0
KCL2 130531Z 16011KT 29/16 A2989 RMK A01 T02930163  RH  045%=      5-min Rain = 0
KCL2 130532Z 17011KT 29/16 A2989 RMK A01 T02930163  RH  045%=      5-min Rain = 0
KCL2 130533Z 16013KT 29/16 A2989 RMK A01 T02930163  RH  045%=      5-min Rain = 0
KCL2 130534Z 17010KT 29/16 A2989 RMK A01 T02930162  RH  045%=      5-min Rain = 0
KCL2 130535Z 17010KT 29/16 A2989 RMK A01 T02930162  RH  045%=      5-min Rain = 0
KCL2 130536Z 17011KT 29/16 A2989 RMK A01 T02930162  RH  045%=      5-min Rain = 0
KCL2 130537Z 17011KT 29/16 A299 RMK A01 T02920162  RH  045%=      5-min Rain = 0
KCL2 130538Z 17010KT 29/16 A299 RMK A01 T02920162  RH  045%=      5-min Rain = 0
KCL2 130539Z 16009KT 29/16 A299 RMK A01 T02910162  RH  046%=      5-min Rain = 0
KCL2 130540Z 17009KT 29/16 A299 RMK A01 T02910162  RH  046%=      5-min Rain = 0
KCL2 130541Z 17009KT 29/16 A299 RMK A01 T02910162  RH  046%=      5-min Rain = 0
KCL2 130542Z 17010KT 29/16 A299 RMK A01 T02900162  RH  046%=      5-min Rain = 0
KCL2 130543Z 17010KT 29/16 A299 RMK A01 T02900162  RH  046%=      5-min Rain = 0
KCL2 130544Z 17009KT 29/16 A299 RMK A01 T02900162  RH  046%=      5-min Rain = 0
KCL2 130545Z 17009KT 29/16 A299 RMK A01 T02900162  RH  046%=      5-min Rain = 0
KCL2 130546Z 17009KT 29/16 A299 RMK A01 T02890162  RH  046%=      5-min Rain = 0
KCL2 130547Z 17010KT 29/16 A299 RMK A01 T02890162  RH  046%=      5-min Rain = 0
KCL2 130548Z 16010KT 29/16 A299 RMK A01 T02890162  RH  046%=      5-min Rain = 0
KCL2 130549Z 17011KT 29/16 A299 RMK A01 T02890161  RH  046%=      5-min Rain = 0
KCL2 130550Z 17009KT 29/16 A299 RMK A01 T02900162  RH  046%=      5-min Rain = 0
KCL2 130551Z 17009KT 29/16 A299 RMK A01 T02890162  RH  046%=      5-min Rain = 0
KCL2 130552Z 16009KT 29/16 A299 RMK A01 T02890161  RH  046%=      5-min Rain = 0
KCL2 130553Z 17010KT 29/16 A299 RMK A01 T02890162  RH  046%=      5-min Rain = 0
KCL2 130554Z 16010KT 29/16 A299 RMK A01 T02890161  RH  046%=      5-min Rain = 0
KCL2 130555Z 17010KT 29/16 A299 RMK A01 T02880161  RH  046%=      5-min Rain = 0
KCL2 130556Z 17009KT 29/16 A299 RMK A01 T02880161  RH  046%=      5-min Rain = 0
KCL2 130557Z 17008KT 29/16 A299 RMK A01 T02880161  RH  046%=      5-min Rain = 0
KCL2 130558Z 17009KT 29/16 A299 RMK A01 T02880161  RH  046%=      5-min Rain = 0
KCL2 130559Z 17009KT 29/16 A299 RMK A01 T02880161  RH  046%=      5-min Rain = 0
KCL2 130600Z 17010KT 29/16 A299 RMK A01 T02880161  RH  046%=      5-min Rain = 0
KCL2 130601Z 17009KT 29/16 A299 RMK A01 T02870161  RH  046%=      5-min Rain = 0
KCL2 130602Z 17010KT 29/16 A299 RMK A01 T02870161  RH  046%=      5-min Rain = 0
KCL2 130603Z 17008KT 29/16 A299 RMK A01 T02870161  RH  046%=      5-min Rain = 0
KCL2 130604Z 18009KT 29/16 A299 RMK A01 T02870161  RH  046%=      5-min Rain = 0
KCL2 130605Z 17007KT 29/16 A299 RMK A01 T02870161  RH  046%=      5-min Rain = 0
KCL2 130606Z 17008KT 29/16 A299 RMK A01 T02870161  RH  047%=      5-min Rain = 0
KCL2 130607Z 18008KT 29/16 A299 RMK A01 T02860161  RH  047%=      5-min Rain = 0
KCL2 130608Z 18008KT 29/16 A299 RMK A01 T02850161  RH  047%=      5-min Rain = 0
KCL2 130609Z 18008KT 29/16 A299 RMK A01 T02850161  RH  047%=      5-min Rain = 0
KCL2 130610Z 18009KT 29/16 A299 RMK A01 T02850161  RH  047%=      5-min Rain = 0
KCL2 130611Z 18010KT 29/16 A299 RMK A01 T02850161  RH  047%=      5-min Rain = 0
KCL2 130612Z 18009KT 29/16 A299 RMK A01 T02850161  RH  047%=      5-min Rain = 0
KCL2 130613Z 18008KT 29/16 A299 RMK A01 T02850161  RH  047%=      5-min Rain = 0
KCL2 130614Z 18010KT 29/16 A299 RMK A01 T02850161  RH  047%=      5-min Rain = 0
KCL2 130615Z 18008KT 29/16 A2991 RMK A01 T02860161  RH  047%=      5-min Rain = 0
KCL2 130616Z 19009KT 29/16 A2991 RMK A01 T02860161  RH  047%=      5-min Rain = 0
KCL2 130617Z 19008KT 29/16 A2991 RMK A01 T02870161  RH  047%=      5-min Rain = 0
KCL2 130618Z 18009KT 29/16 A2991 RMK A01 T02860161  RH  047%=      5-min Rain = 0
KCL2 130619Z 18009KT 29/16 A2991 RMK A01 T02860161  RH  047%=      5-min Rain = 0
KCL2 130620Z 18009KT 29/16 A2991 RMK A01 T02860161  RH  047%=      5-min Rain = 0
KCL2 130621Z 18008KT 29/16 A2991 RMK A01 T02860161  RH  047%=      5-min Rain = 0
KCL2 130622Z 18010KT 29/16 A2991 RMK A01 T02860161  RH  047%=      5-min Rain = 0
KCL2 130623Z 18009KT 29/16 A2991 RMK A01 T02860161  RH  047%=      5-min Rain = 0
KCL2 130624Z 18008KT 29/16 A2991 RMK A01 T02860161  RH  047%=      5-min Rain = 0
KCL2 130625Z 18008KT 29/16 A2991 RMK A01 T02860161  RH  047%=      5-min Rain = 0
KCL2 130626Z 18009KT 29/16 A2991 RMK A01 T02850161  RH  047%=      5-min Rain = 0
KCL2 130627Z 18007KT 29/16 A2991 RMK A01 T02850161  RH  047%=      5-min Rain = 0
KCL2 130628Z 18009KT 29/16 A2991 RMK A01 T02850161  RH  047%=      5-min Rain = 0
KCL2 130629Z 18010KT 29/16 A2991 RMK A01 T02850161  RH  047%=      5-min Rain = 0
KCL2 130630Z 18008KT 29/16 A2991 RMK A01 T02850161  RH  047%=      5-min Rain = 0
KCL2 130631Z 18007KT 29/16 A2991 RMK A01 T02850161  RH  047%=      5-min Rain = 0
KCL2 130632Z 18008KT 29/16 A2991 RMK A01 T02850161  RH  047%=      5-min Rain = 0
KCL2 130633Z 18009KT 28/16 A2991 RMK A01 T02840161  RH  047%=      5-min Rain = 0
KCL2 130634Z 18008KT 29/16 A2991 RMK A01 T02850161  RH  047%=      5-min Rain = 0
KCL2 130635Z 18009KT 28/16 A2991 RMK A01 T02840161  RH  047%=      5-min Rain = 0
KCL2 130636Z 18010KT 28/16 A2991 RMK A01 T02840161  RH  047%=      5-min Rain = 0
KCL2 130637Z 18008KT 29/16 A2991 RMK A01 T02850161  RH  047%=      5-min Rain = 0
KCL2 130638Z 18007KT 29/16 A2991 RMK A01 T02850161  RH  047%=      5-min Rain = 0
KCL2 130639Z 18009KT 28/16 A299 RMK A01 T02840161  RH  047%=      5-min Rain = 0
KCL2 130640Z 18009KT 28/16 A299 RMK A01 T02840161  RH  047%=      5-min Rain = 0
KCL2 130641Z 18008KT 28/16 A299 RMK A01 T02840161  RH  047%=      5-min Rain = 0
KCL2 130642Z 18009KT 28/16 A299 RMK A01 T02840162  RH  047%=      5-min Rain = 0
KCL2 130643Z 18009KT 28/16 A299 RMK A01 T02840162  RH  047%=      5-min Rain = 0
KCL2 130644Z 18009KT 28/16 A299 RMK A01 T02840162  RH  047%=      5-min Rain = 0
KCL2 130645Z 18009KT 28/16 A299 RMK A01 T02840162  RH  048%=      5-min Rain = 0
KCL2 130646Z 18009KT 28/16 A299 RMK A01 T02840162  RH  048%=      5-min Rain = 0
KCL2 130647Z 18009KT 28/16 A299 RMK A01 T02840162  RH  048%=      5-min Rain = 0
KCL2 130648Z 18010KT 28/16 A299 RMK A01 T02840162  RH  047%=      5-min Rain = 0
KCL2 130649Z 18009KT 29/16 A299 RMK A01 T02850162  RH  047%=      5-min Rain = 0
KCL2 130650Z 18008KT 29/16 A299 RMK A01 T02850162  RH  047%=      5-min Rain = 0
KCL2 130651Z 18008KT 29/16 A299 RMK A01 T02850162  RH  047%=      5-min Rain = 0
KCL2 130652Z 18009KT 29/16 A299 RMK A01 T02850162  RH  047%=      5-min Rain = 0
KCL2 130653Z 18009KT 28/16 A299 RMK A01 T02840162  RH  048%=      5-min Rain = 0
KCL2 130654Z 18009KT 28/16 A299 RMK A01 T02840162  RH  048%=      5-min Rain = 0
KCL2 130655Z 17009KT 28/16 A299 RMK A01 T02840162  RH  048%=      5-min Rain = 0
KCL2 130656Z 18010KT 29/16 A299 RMK A01 T02850163  RH  048%=      5-min Rain = 0
KCL2 130657Z 18009KT 28/16 A299 RMK A01 T02840162  RH  048%=      5-min Rain = 0
KCL2 130658Z 18008KT 28/16 A299 RMK A01 T02840162  RH  048%=      5-min Rain = 0
KCL2 130659Z 18009KT 28/16 A299 RMK A01 T02830162  RH  048%=      5-min Rain = 0
KCL2 130700Z 18009KT 28/16 A299 RMK A01 T02820162  RH  048%=      5-min Rain = 0
KCL2 130701Z 18007KT 28/16 A299 RMK A01 T02820162  RH  048%=      5-min Rain = 0
KCL2 130702Z 18008KT 28/16 A299 RMK A01 T02820162  RH  048%=      5-min Rain = 0
KCL2 130703Z 18008KT 28/16 A299 RMK A01 T02820162  RH  048%=      5-min Rain = 0
KCL2 130704Z 18008KT 28/16 A299 RMK A01 T02820162  RH  048%=      5-min Rain = 0
KCL2 130705Z 18008KT 28/16 A299 RMK A01 T02820163  RH  048%=      5-min Rain = 0
KCL2 130706Z 18008KT 28/16 A299 RMK A01 T02810163  RH  048%=      5-min Rain = 0
KCL2 130707Z 18008KT 28/16 A299 RMK A01 T02810163  RH  049%=      5-min Rain = 0
KCL2 130708Z 18009KT 28/16 A299 RMK A01 T02810163  RH  049%=      5-min Rain = 0
KCL2 130709Z 18008KT 28/16 A299 RMK A01 T02810162  RH  048%=      5-min Rain = 0
KCL2 130710Z 18008KT 28/16 A299 RMK A01 T02810163  RH  048%=      5-min Rain = 0
KCL2 130711Z 17008KT 28/16 A299 RMK A01 T02810163  RH  049%=      5-min Rain = 0
KCL2 130712Z 18008KT 28/16 A299 RMK A01 T02810163  RH  049%=      5-min Rain = 0
KCL2 130713Z 18008KT 28/16 A299 RMK A01 T02800163  RH  049%=      5-min Rain = 0
KCL2 130714Z 18008KT 28/16 A299 RMK A01 T02800163  RH  049%=      5-min Rain = 0
KCL2 130715Z 18007KT 28/16 A299 RMK A01 T02800163  RH  049%=      5-min Rain = 0
KCL2 130716Z 18009KT 28/16 A299 RMK A01 T02800163  RH  049%=      5-min Rain = 0
KCL2 130717Z 18008KT 28/16 A299 RMK A01 T02790163  RH  049%=      5-min Rain = 0
KCL2 130718Z 18008KT 28/16 A299 RMK A01 T02800163  RH  049%=      5-min Rain = 0
KCL2 130719Z 18008KT 28/16 A299 RMK A01 T02790163  RH  049%=      5-min Rain = 0
KCL2 130720Z 18008KT 28/16 A299 RMK A01 T02790163  RH  049%=      5-min Rain = 0
KCL2 130721Z 18009KT 28/16 A299 RMK A01 T02790163  RH  049%=      5-min Rain = 0
KCL2 130722Z 18008KT 28/16 A299 RMK A01 T02790163  RH  049%=      5-min Rain = 0
KCL2 130723Z 18008KT 28/16 A299 RMK A01 T02800163  RH  049%=      5-min Rain = 0
KCL2 130724Z 18008KT 28/16 A299 RMK A01 T02800164  RH  049%=      5-min Rain = 0
KCL2 130725Z 18008KT 28/16 A299 RMK A01 T02800164  RH  049%=      5-min Rain = 0
KCL2 130726Z 18008KT 28/16 A299 RMK A01 T02800164  RH  049%=      5-min Rain = 0
KCL2 130727Z 18008KT 28/16 A299 RMK A01 T02790164  RH  050%=      5-min Rain = 0
KCL2 130728Z 18007KT 28/16 A299 RMK A01 T02790164  RH  050%=      5-min Rain = 0
KCL2 130729Z 18009KT 28/16 A2989 RMK A01 T02790164  RH  050%=      5-min Rain = 0
KCL2 130730Z 18010KT 28/16 A2989 RMK A01 T02790164  RH  050%=      5-min Rain = 0
KCL2 130731Z 19009KT 28/17 A2989 RMK A01 T02790165  RH  050%=      5-min Rain = 0
KCL2 130732Z 18009KT 28/17 A2989 RMK A01 T02790165  RH  050%=      5-min Rain = 0
KCL2 130733Z 18009KT 28/17 A2989 RMK A01 T02790165  RH  050%=      5-min Rain = 0
KCL2 130734Z 18008KT 28/17 A2989 RMK A01 T02790166  RH  050%=      5-min Rain = 0
KCL2 130735Z 18008KT 28/17 A2989 RMK A01 T02790166  RH  050%=      5-min Rain = 0
KCL2 130736Z 18009KT 28/17 A2989 RMK A01 T02790166  RH  050%=      5-min Rain = 0
KCL2 130737Z 18009KT 28/17 A2989 RMK A01 T02800166  RH  050%=      5-min Rain = 0
KCL2 130738Z 18009KT 28/17 A2989 RMK A01 T02800166  RH  050%=      5-min Rain = 0
KCL2 130739Z 18008KT 28/17 A2989 RMK A01 T02800166  RH  050%=      5-min Rain = 0
KCL2 130740Z 18009KT 28/17 A2989 RMK A01 T02810167  RH  050%=      5-min Rain = 0
KCL2 130741Z 18010KT 28/17 A2989 RMK A01 T02810166  RH  050%=      5-min Rain = 0
KCL2 130742Z 17009KT 28/17 A2989 RMK A01 T02800166  RH  050%=      5-min Rain = 0
KCL2 130743Z 18008KT 28/17 A2989 RMK A01 T02800166  RH  050%=      5-min Rain = 0
KCL2 130744Z 18008KT 28/17 A2989 RMK A01 T02790166  RH  050%=      5-min Rain = 0
KCL2 130745Z 18009KT 28/17 A2989 RMK A01 T02790166  RH  050%=      5-min Rain = 0
KCL2 130746Z 18009KT 28/17 A2989 RMK A01 T02780166  RH  050%=      5-min Rain = 0
KCL2 130747Z 18009KT 28/17 A2989 RMK A01 T02780166  RH  050%=      5-min Rain = 0
KCL2 130748Z 18009KT 28/17 A2989 RMK A01 T02780166  RH  050%=      5-min Rain = 0
KCL2 130749Z 18009KT 28/17 A2989 RMK A01 T02780166  RH  050%=      5-min Rain = 0
KCL2 130750Z 18009KT 28/17 A2989 RMK A01 T02780166  RH  050%=      5-min Rain = 0
KCL2 130751Z 18008KT 28/17 A2989 RMK A01 T02780166  RH  051%=      5-min Rain = 0
KCL2 130752Z 18009KT 28/17 A2989 RMK A01 T02770166  RH  051%=      5-min Rain = 0
KCL2 130753Z 18010KT 28/17 A2989 RMK A01 T02770166  RH  051%=      5-min Rain = 0
KCL2 130754Z 18009KT 28/17 A2989 RMK A01 T02770166  RH  051%=      5-min Rain = 0
KCL2 130755Z 18009KT 28/17 A2989 RMK A01 T02770166  RH  051%=      5-min Rain = 0
KCL2 130756Z 18010KT 28/17 A2989 RMK A01 T02770166  RH  051%=      5-min Rain = 0
KCL2 130757Z 18009KT 28/17 A2989 RMK A01 T02770166  RH  051%=      5-min Rain = 0
KCL2 130758Z 18009KT 28/17 A2989 RMK A01 T02770167  RH  051%=      5-min Rain = 0
KCL2 130759Z 18009KT 28/17 A2989 RMK A01 T02770167  RH  051%=      5-min Rain = 0
KCL2 130800Z 18009KT 28/17 A2989 RMK A01 T02770167  RH  051%=      5-min Rain = 0
KCL2 130801Z 18009KT 28/17 A2989 RMK A01 T02770167  RH  051%=      5-min Rain = 0
KCL2 130802Z 17009KT 28/17 A2989 RMK A01 T02770167  RH  051%=      5-min Rain = 0
KCL2 130803Z 18009KT 28/17 A2989 RMK A01 T02770167  RH  051%=      5-min Rain = 0
KCL2 130804Z 18009KT 28/17 A2989 RMK A01 T02770167  RH  051%=      5-min Rain = 0
KCL2 130805Z 18009KT 28/17 A2989 RMK A01 T02770168  RH  051%=      5-min Rain = 0
KCL2 130806Z 17009KT 28/17 A2989 RMK A01 T02770168  RH  051%=      5-min Rain = 0
KCL2 130807Z 18009KT 28/17 A2989 RMK A01 T02770167  RH  051%=      5-min Rain = 0
KCL2 130808Z 18009KT 28/17 A2989 RMK A01 T02770168  RH  051%=      5-min Rain = 0
KCL2 130809Z 18009KT 28/17 A2989 RMK A01 T02770168  RH  051%=      5-min Rain = 0
KCL2 130810Z 18009KT 28/17 A2988 RMK A01 T02770168  RH  051%=      5-min Rain = 0
KCL2 130811Z 18009KT 28/17 A2989 RMK A01 T02780169  RH  052%=      5-min Rain = 0
KCL2 130812Z 18010KT 28/17 A2988 RMK A01 T02780169  RH  052%=      5-min Rain = 0
KCL2 130813Z 18009KT 28/17 A2988 RMK A01 T02780169  RH  051%=      5-min Rain = 0
KCL2 130814Z 18008KT 28/17 A2988 RMK A01 T02770168  RH  051%=      5-min Rain = 0
KCL2 130815Z 18008KT 28/17 A2989 RMK A01 T02780169  RH  052%=      5-min Rain = 0
KCL2 130816Z 18009KT 28/17 A2988 RMK A01 T02770169  RH  052%=      5-min Rain = 0
KCL2 130817Z 18008KT 28/17 A2988 RMK A01 T02770170  RH  052%=      5-min Rain = 0
KCL2 130818Z 18009KT 28/17 A2988 RMK A01 T02770170  RH  052%=      5-min Rain = 0
KCL2 130819Z 18011KT 28/17 A2988 RMK A01 T02770170  RH  052%=      5-min Rain = 0
KCL2 130820Z 18009KT 28/17 A2988 RMK A01 T02780170  RH  052%=      5-min Rain = 0
KCL2 130821Z 18010KT 28/17 A2988 RMK A01 T02790170  RH  052%=      5-min Rain = 0
KCL2 130822Z 18009KT 28/17 A2989 RMK A01 T02790170  RH  052%=      5-min Rain = 0
KCL2 130823Z 18010KT 28/17 A2989 RMK A01 T02790170  RH  052%=      5-min Rain = 0
KCL2 130824Z 19009KT 28/17 A2989 RMK A01 T02790170  RH  052%=      5-min Rain = 0
KCL2 130825Z 18008KT 28/17 A2989 RMK A01 T02790171  RH  052%=      5-min Rain = 0
KCL2 130826Z 18008KT 28/17 A2989 RMK A01 T02790171  RH  052%=      5-min Rain = 0
KCL2 130827Z 18010KT 28/17 A2989 RMK A01 T02780171  RH  052%=      5-min Rain = 0
KCL2 130828Z 18009KT 28/17 A2989 RMK A01 T02780171  RH  052%=      5-min Rain = 0
KCL2 130829Z 18009KT 28/17 A2989 RMK A01 T02780171  RH  052%=      5-min Rain = 0
KCL2 130830Z 18008KT 28/17 A2989 RMK A01 T02780172  RH  052%=      5-min Rain = 0
KCL2 130831Z 18009KT 28/17 A2989 RMK A01 T02770171  RH  052%=      5-min Rain = 0
KCL2 130832Z 18009KT 28/17 A2989 RMK A01 T02770172  RH  053%=      5-min Rain = 0
KCL2 130833Z 18009KT 28/17 A2989 RMK A01 T02770172  RH  053%=      5-min Rain = 0
KCL2 130834Z 18010KT 28/17 A2989 RMK A01 T02780172  RH  053%=      5-min Rain = 0
KCL2 130835Z 18008KT 28/17 A2989 RMK A01 T02780172  RH  053%=      5-min Rain = 0
KCL2 130836Z 18011KT 28/17 A2989 RMK A01 T02770172  RH  053%=      5-min Rain = 0
KCL2 130837Z 18010KT 28/17 A2989 RMK A01 T02770172  RH  053%=      5-min Rain = 0
KCL2 130838Z 18008KT 28/17 A2989 RMK A01 T02770172  RH  053%=      5-min Rain = 0
KCL2 130839Z 18009KT 28/17 A2989 RMK A01 T02770172  RH  053%=      5-min Rain = 0
KCL2 130840Z 17010KT 28/17 A2989 RMK A01 T02760172  RH  053%=      5-min Rain = 0
KCL2 130841Z 18009KT 28/17 A2988 RMK A01 T02760172  RH  053%=      5-min Rain = 0
KCL2 130842Z 17010KT 28/17 A2988 RMK A01 T02750172  RH  053%=      5-min Rain = 0
KCL2 130843Z 17009KT 28/17 A2988 RMK A01 T02750172  RH  053%=      5-min Rain = 0
KCL2 130844Z 17010KT 28/17 A2988 RMK A01 T02750172  RH  053%=      5-min Rain = 0
KCL2 130845Z 18012KT 28/17 A2988 RMK A01 T02750172  RH  053%=      5-min Rain = 0
KCL2 130846Z 17011KT 28/17 A2988 RMK A01 T02750172  RH  053%=      5-min Rain = 0
KCL2 130847Z 18009G14KT 28/17 A2988 RMK A01 T02760172  RH  053%=      5-min Rain = 0
KCL2 130848Z 18011KT 28/17 A2988 RMK A01 T02760173  RH  053%=      5-min Rain = 0
KCL2 130849Z 17012KT 28/17 A2988 RMK A01 T02760172  RH  053%=      5-min Rain = 0
KCL2 130850Z 18011KT 28/17 A2988 RMK A01 T02760173  RH  053%=      5-min Rain = 0
KCL2 130851Z 17009KT 28/17 A2988 RMK A01 T02760172  RH  053%=      5-min Rain = 0
KCL2 130852Z 18010KT 28/17 A2988 RMK A01 T02760173  RH  053%=      5-min Rain = 0
KCL2 130853Z 18011G16KT 28/17 A2988 RMK A01 T02760173  RH  053%=      5-min Rain = 0
KCL2 130854Z 17011KT 28/17 A2988 RMK A01 T02760173  RH  054%=      5-min Rain = 0
KCL2 130855Z 18010KT 28/17 A2988 RMK A01 T02760174  RH  054%=      5-min Rain = 0
KCL2 130856Z 17011KT 28/17 A2988 RMK A01 T02760174  RH  054%=      5-min Rain = 0
KCL2 130857Z 17011KT 28/17 A2988 RMK A01 T02760174  RH  054%=      5-min Rain = 0
KCL2 130858Z 17012KT 28/17 A2988 RMK A01 T02760174  RH  054%=      5-min Rain = 0
KCL2 130859Z 17009KT 28/17 A2988 RMK A01 T02760174  RH  054%=      5-min Rain = 0
KCL2 130900Z 18010KT 28/17 A2988 RMK A01 T02760174  RH  054%=      5-min Rain = 0
KCL2 130901Z 18011KT 28/17 A2988 RMK A01 T02760174  RH  054%=      5-min Rain = 0
KCL2 130902Z 18011KT 28/17 A2988 RMK A01 T02760174  RH  054%=      5-min Rain = 0
KCL2 130903Z 18011KT 28/17 A2988 RMK A01 T02750174  RH  054%=      5-min Rain = 0
KCL2 130904Z 17011KT 28/17 A2988 RMK A01 T02750174  RH  054%=      5-min Rain = 0
KCL2 130905Z 17010KT 28/17 A2988 RMK A01 T02750174  RH  054%=      5-min Rain = 0
KCL2 130906Z 17010KT 28/17 A2988 RMK A01 T02750174  RH  054%=      5-min Rain = 0
KCL2 130907Z 18010KT 28/18 A2988 RMK A01 T02750175  RH  054%=      5-min Rain = 0
KCL2 130908Z 17011KT 28/18 A2988 RMK A01 T02750175  RH  054%=      5-min Rain = 0
KCL2 130909Z 17010KT 28/18 A2989 RMK A01 T02750175  RH  054%=      5-min Rain = 0
KCL2 130910Z 18010KT 28/18 A2989 RMK A01 T02750175  RH  054%=      5-min Rain = 0
KCL2 130911Z 18009KT 27/17 A2989 RMK A01 T02740174  RH  054%=      5-min Rain = 0
KCL2 130912Z 17012KT 27/17 A2989 RMK A01 T02730174  RH  055%=      5-min Rain = 0
KCL2 130913Z 18010KT 27/17 A2989 RMK A01 T02730174  RH  055%=      5-min Rain = 0
KCL2 130914Z 18010KT 27/17 A2988 RMK A01 T02730174  RH  055%=      5-min Rain = 0
KCL2 130915Z 18010KT 27/17 A2988 RMK A01 T02730174  RH  055%=      5-min Rain = 0
KCL2 130916Z 18010KT 27/17 A2989 RMK A01 T02730174  RH  055%=      5-min Rain = 0
KCL2 130917Z 18010KT 27/17 A2989 RMK A01 T02720174  RH  055%=      5-min Rain = 0
KCL2 130918Z 17009KT 27/17 A2988 RMK A01 T02720174  RH  055%=      5-min Rain = 0
KCL2 130919Z 18010KT 27/17 A2989 RMK A01 T02720174  RH  055%=      5-min Rain = 0
KCL2 130920Z 17009KT 27/18 A2989 RMK A01 T02720175  RH  055%=      5-min Rain = 0
KCL2 130921Z 17010KT 27/17 A2989 RMK A01 T02710174  RH  055%=      5-min Rain = 0
KCL2 130922Z 17009KT 27/18 A2989 RMK A01 T02710175  RH  056%=      5-min Rain = 0
KCL2 130923Z 17009KT 27/18 A2989 RMK A01 T02710175  RH  056%=      5-min Rain = 0
KCL2 130924Z 17009G14KT 27/18 A2989 RMK A01 T02710175  RH  056%=      5-min Rain = 0
KCL2 130925Z 17008KT 27/18 A2989 RMK A01 T02700175  RH  056%=      5-min Rain = 0
KCL2 130926Z 17010KT 27/18 A2989 RMK A01 T02700175  RH  056%=      5-min Rain = 0
KCL2 130927Z 17009KT 27/18 A2989 RMK A01 T02700175  RH  056%=      5-min Rain = 0
KCL2 130928Z 18009KT 27/18 A2989 RMK A01 T02700175  RH  056%=      5-min Rain = 0
KCL2 130929Z 17008KT 27/18 A2989 RMK A01 T02700176  RH  056%=      5-min Rain = 0
KCL2 130930Z 18009KT 27/18 A2989 RMK A01 T02690176  RH  056%=      5-min Rain = 0
KCL2 130931Z 18009KT 27/18 A2989 RMK A01 T02690176  RH  057%=      5-min Rain = 0
KCL2 130932Z 18009KT 27/18 A2989 RMK A01 T02690176  RH  057%=      5-min Rain = 0
KCL2 130933Z 18010KT 27/18 A2989 RMK A01 T02690177  RH  057%=      5-min Rain = 0
KCL2 130934Z 18010KT 27/18 A2989 RMK A01 T02680176  RH  057%=      5-min Rain = 0
KCL2 130935Z 18009KT 27/18 A2989 RMK A01 T02680177  RH  057%=      5-min Rain = 0
KCL2 130936Z 17009KT 27/18 A2989 RMK A01 T02680177  RH  057%=      5-min Rain = 0
KCL2 130937Z 18009KT 27/18 A2989 RMK A01 T02680177  RH  057%=      5-min Rain = 0
KCL2 130938Z 18010KT 27/18 A2989 RMK A01 T02680177  RH  058%=      5-min Rain = 0
KCL2 130939Z 18009KT 27/18 A2989 RMK A01 T02680178  RH  058%=      5-min Rain = 0
KCL2 130940Z 18010KT 27/18 A2989 RMK A01 T02670178  RH  058%=      5-min Rain = 0
KCL2 130941Z 18010KT 27/18 A2989 RMK A01 T02670178  RH  058%=      5-min Rain = 0
KCL2 130942Z 18010KT 27/18 A2989 RMK A01 T02680178  RH  058%=      5-min Rain = 0
KCL2 130943Z 18010KT 27/18 A2989 RMK A01 T02680178  RH  058%=      5-min Rain = 0
KCL2 130944Z 18010KT 27/18 A2989 RMK A01 T02680179  RH  058%=      5-min Rain = 0
KCL2 130945Z 18010KT 27/18 A2989 RMK A01 T02680179  RH  058%=      5-min Rain = 0
KCL2 130946Z 18011KT 27/18 A2989 RMK A01 T02680180  RH  058%=      5-min Rain = 0
KCL2 130947Z 18010KT 27/18 A2989 RMK A01 T02680180  RH  059%=      5-min Rain = 0
KCL2 130948Z 17008KT 27/18 A2989 RMK A01 T02680180  RH  059%=      5-min Rain = 0
KCL2 130949Z 17010KT 27/18 A2989 RMK A01 T02680181  RH  059%=      5-min Rain = 0
KCL2 130950Z 18009KT 27/18 A2989 RMK A01 T02670181  RH  059%=      5-min Rain = 0
KCL2 130951Z 17011KT 27/18 A2989 RMK A01 T02670181  RH  059%=      5-min Rain = 0
KCL2 130952Z 18009KT 27/18 A2989 RMK A01 T02670182  RH  059%=      5-min Rain = 0
KCL2 130953Z 17009KT 27/18 A2989 RMK A01 T02670181  RH  059%=      5-min Rain = 0
KCL2 130954Z 17010KT 27/18 A2989 RMK A01 T02670182  RH  060%=      5-min Rain = 0
KCL2 130955Z 17011KT 27/18 A2989 RMK A01 T02670182  RH  060%=      5-min Rain = 0
KCL2 130956Z 18010KT 27/18 A2989 RMK A01 T02670182  RH  060%=      5-min Rain = 0
KCL2 130957Z 18010KT 27/18 A2989 RMK A01 T02670183  RH  060%=      5-min Rain = 0
KCL2 130958Z 18008KT 27/18 A2989 RMK A01 T02670183  RH  060%=      5-min Rain = 0
KCL2 130959Z 18010KT 27/18 A2989 RMK A01 T02670183  RH  060%=      5-min Rain = 0
KCL2 131000Z 17010KT 27/18 A2989 RMK A01 T02670184  RH  060%=      5-min Rain = 0
KCL2 131001Z 18008KT 27/18 A2989 RMK A01 T02660184  RH  060%=      5-min Rain = 0
KCL2 131002Z 17009KT 27/18 A2989 RMK A01 T02660184  RH  061%=      5-min Rain = 0
KCL2 131003Z 18010KT 27/18 A2989 RMK A01 T02660184  RH  061%=      5-min Rain = 0
KCL2 131004Z 18008KT 27/18 A2989 RMK A01 T02660184  RH  061%=      5-min Rain = 0
KCL2 131005Z 18009KT 27/18 A299 RMK A01 T02660184  RH  061%=      5-min Rain = 0
KCL2 131006Z 18008KT 27/19 A299 RMK A01 T02660185  RH  061%=      5-min Rain = 0
KCL2 131007Z 17008KT 27/19 A299 RMK A01 T02650185  RH  061%=      5-min Rain = 0
KCL2 131008Z 18009KT 27/19 A299 RMK A01 T02650185  RH  061%=      5-min Rain = 0
KCL2 131009Z 18009KT 27/19 A299 RMK A01 T02650185  RH  062%=      5-min Rain = 0
KCL2 131010Z 18010KT 27/19 A299 RMK A01 T02650186  RH  062%=      5-min Rain = 0
KCL2 131011Z 18007KT 27/19 A299 RMK A01 T02650186  RH  062%=      5-min Rain = 0
KCL2 131012Z 18008KT 27/19 A299 RMK A01 T02650186  RH  062%=      5-min Rain = 0
KCL2 131013Z 18008KT 27/19 A299 RMK A01 T02650186  RH  062%=      5-min Rain = 0
KCL2 131014Z 18008KT 26/19 A299 RMK A01 T02640186  RH  062%=      5-min Rain = 0
KCL2 131015Z 18008KT 26/19 A299 RMK A01 T02640187  RH  062%=      5-min Rain = 0
KCL2 131016Z 18009KT 26/19 A299 RMK A01 T02640187  RH  063%=      5-min Rain = 0
KCL2 131017Z 18008KT 26/19 A299 RMK A01 T02640187  RH  063%=      5-min Rain = 0
KCL2 131018Z 18009KT 26/19 A299 RMK A01 T02640187  RH  063%=      5-min Rain = 0
KCL2 131019Z 18009KT 26/19 A299 RMK A01 T02640187  RH  063%=      5-min Rain = 0
KCL2 131020Z 18008KT 26/19 A299 RMK A01 T02640187  RH  063%=      5-min Rain = 0
KCL2 131021Z 18008KT 26/19 A299 RMK A01 T02640188  RH  063%=      5-min Rain = 0
KCL2 131022Z 18007KT 26/19 A299 RMK A01 T02630188  RH  063%=      5-min Rain = 0
KCL2 131023Z 18009KT 26/19 A299 RMK A01 T02620188  RH  064%=      5-min Rain = 0
KCL2 131024Z 18008KT 26/19 A299 RMK A01 T02620188  RH  064%=      5-min Rain = 0
KCL2 131025Z 18008KT 26/19 A299 RMK A01 T02620188  RH  064%=      5-min Rain = 0
KCL2 131026Z 18007KT 26/19 A299 RMK A01 T02620189  RH  064%=      5-min Rain = 0
KCL2 131027Z 18008KT 26/19 A2991 RMK A01 T02620189  RH  064%=      5-min Rain = 0
KCL2 131028Z 18007KT 26/19 A2991 RMK A01 T02620189  RH  064%=      5-min Rain = 0
KCL2 131029Z 18007KT 26/19 A2991 RMK A01 T02620189  RH  064%=      5-min Rain = 0
KCL2 131030Z 18010KT 26/19 A2991 RMK A01 T02620189  RH  064%=      5-min Rain = 0
KCL2 131031Z 18009KT 26/19 A2991 RMK A01 T02620190  RH  064%=      5-min Rain = 0
KCL2 131032Z 18009KT 26/19 A2991 RMK A01 T02620189  RH  064%=      5-min Rain = 0
KCL2 131033Z 18009KT 26/19 A2991 RMK A01 T02620190  RH  065%=      5-min Rain = 0
KCL2 131034Z 18009KT 26/19 A2991 RMK A01 T02610190  RH  065%=      5-min Rain = 0
KCL2 131035Z 18010KT 26/19 A2991 RMK A01 T02610190  RH  065%=      5-min Rain = 0
KCL2 131036Z 18008KT 26/19 A2991 RMK A01 T02610190  RH  065%=      5-min Rain = 0
KCL2 131037Z 18008KT 26/19 A2991 RMK A01 T02610190  RH  065%=      5-min Rain = 0
KCL2 131038Z 17009KT 26/19 A2991 RMK A01 T02610191  RH  065%=      5-min Rain = 0
KCL2 131039Z 18008KT 26/19 A2991 RMK A01 T02610190  RH  065%=      5-min Rain = 0
KCL2 131040Z 17011KT 26/19 A2991 RMK A01 T02610191  RH  065%=      5-min Rain = 0
KCL2 131041Z 18010KT 26/19 A2991 RMK A01 T02610191  RH  065%=      5-min Rain = 0
KCL2 131042Z 17009KT 26/19 A2991 RMK A01 T02620191  RH  065%=      5-min Rain = 0
KCL2 131043Z 17009KT 26/19 A2991 RMK A01 T02620192  RH  065%=      5-min Rain = 0
KCL2 131044Z 18009KT 26/19 A2991 RMK A01 T02620191  RH  065%=      5-min Rain = 0
KCL2 131045Z 17010KT 26/19 A2991 RMK A01 T02610192  RH  066%=      5-min Rain = 0
KCL2 131046Z 17010KT 26/19 A2991 RMK A01 T02610192  RH  066%=      5-min Rain = 0
KCL2 131047Z 17010KT 26/19 A2991 RMK A01 T02610192  RH  066%=      5-min Rain = 0
KCL2 131048Z 18010KT 26/19 A2991 RMK A01 T02610192  RH  066%=      5-min Rain = 0
KCL2 131049Z 17010KT 26/19 A2991 RMK A01 T02610192  RH  066%=      5-min Rain = 0
KCL2 131050Z 18010KT 26/19 A2991 RMK A01 T02610192  RH  066%=      5-min Rain = 0
KCL2 131051Z 17010KT 26/19 A2991 RMK A01 T02610192  RH  066%=      5-min Rain = 0
KCL2 131052Z 17009KT 26/19 A2991 RMK A01 T02610192  RH  066%=      5-min Rain = 0
KCL2 131053Z 17011KT 26/19 A2991 RMK A01 T02600192  RH  066%=      5-min Rain = 0
KCL2 131054Z 17011KT 26/19 A2991 RMK A01 T02600192  RH  066%=      5-min Rain = 0
KCL2 131055Z 17011KT 26/19 A2991 RMK A01 T02600193  RH  066%=      5-min Rain = 0
KCL2 131056Z 17011KT 26/19 A2991 RMK A01 T02610193  RH  066%=      5-min Rain = 0
KCL2 131057Z 17011KT 26/19 A2991 RMK A01 T02600193  RH  066%=      5-min Rain = 0
KCL2 131058Z 16010KT 26/19 A2991 RMK A01 T02600192  RH  066%=      5-min Rain = 0
KCL2 131059Z 17011KT 26/19 A2991 RMK A01 T02610193  RH  066%=      5-min Rain = 0
KCL2 131100Z 17011KT 26/19 A2991 RMK A01 T02610192  RH  066%=      5-min Rain = 0
KCL2 131101Z 16010KT 26/19 A2991 RMK A01 T02600191  RH  066%=      5-min Rain = 0
KCL2 131102Z 17011KT 26/19 A2991 RMK A01 T02600191  RH  066%=      5-min Rain = 0
KCL2 131103Z 16011KT 26/19 A2991 RMK A01 T02590191  RH  066%=      5-min Rain = 0
KCL2 131104Z 17009KT 26/19 A2991 RMK A01 T02590191  RH  066%=      5-min Rain = 0
KCL2 131105Z 17011KT 26/19 A2991 RMK A01 T02580191  RH  066%=      5-min Rain = 0
KCL2 131106Z 17010KT 26/19 A2991 RMK A01 T02580191  RH  066%=      5-min Rain = 0
KCL2 131107Z 17011KT 26/19 A2991 RMK A01 T02580191  RH  066%=      5-min Rain = 0
KCL2 131108Z 17009KT 26/19 A2991 RMK A01 T02580191  RH  066%=      5-min Rain = 0
KCL2 131109Z 17008KT 26/19 A2991 RMK A01 T02570190  RH  066%=      5-min Rain = 0
KCL2 131110Z 17009KT 26/19 A2991 RMK A01 T02570190  RH  066%=      5-min Rain = 0
KCL2 131111Z 17010KT 26/19 A2991 RMK A01 T02570190  RH  067%=      5-min Rain = 0
KCL2 131112Z 17009KT 26/19 A2991 RMK A01 T02560190  RH  067%=      5-min Rain = 0
KCL2 131113Z 17009KT 26/19 A2992 RMK A01 T02560190  RH  067%=      5-min Rain = 0
KCL2 131114Z 17007KT 26/19 A2992 RMK A01 T02560190  RH  067%=      5-min Rain = 0
KCL2 131115Z 17009KT 26/19 A2992 RMK A01 T02560191  RH  067%=      5-min Rain = 0
KCL2 131116Z 17009KT 26/19 A2992 RMK A01 T02560191  RH  067%=      5-min Rain = 0
KCL2 131117Z 17009KT 26/19 A2992 RMK A01 T02560191  RH  067%=      5-min Rain = 0
KCL2 131118Z 17009KT 26/19 A2992 RMK A01 T02560192  RH  067%=      5-min Rain = 0
KCL2 131119Z 17008KT 26/19 A2992 RMK A01 T02560191  RH  067%=      5-min Rain = 0
KCL2 131120Z 16008KT 26/19 A2992 RMK A01 T02560191  RH  067%=      5-min Rain = 0
KCL2 131121Z 16009KT 26/19 A2992 RMK A01 T02560191  RH  067%=      5-min Rain = 0
KCL2 131122Z 16008KT 26/19 A2992 RMK A01 T02560192  RH  067%=      5-min Rain = 0
KCL2 131123Z 16008KT 26/19 A2992 RMK A01 T02560191  RH  067%=      5-min Rain = 0
KCL2 131124Z 16007KT 26/19 A2992 RMK A01 T02560191  RH  067%=      5-min Rain = 0
KCL2 131125Z 16008KT 26/19 A2992 RMK A01 T02560191  RH  068%=      5-min Rain = 0
KCL2 131126Z 15008KT 26/19 A2992 RMK A01 T02560191  RH  068%=      5-min Rain = 0
KCL2 131127Z 16007KT 26/19 A2992 RMK A01 T02550191  RH  068%=      5-min Rain = 0
KCL2 131128Z 15005KT 26/19 A2993 RMK A01 T02550191  RH  068%=      5-min Rain = 0
KCL2 131129Z 15004KT 26/19 A2993 RMK A01 T02550192  RH  068%=      5-min Rain = 0
KCL2 131130Z 12003KT 26/19 A2993 RMK A01 T02550192  RH  068%=      5-min Rain = 0
KCL2 131131Z 10001KT 26/19 A2993 RMK A01 T02550192  RH  068%=      5-min Rain = 0
KCL2 131132Z 04002KT 26/19 A2994 RMK A01 T02550192  RH  068%=      5-min Rain = 0
KCL2 131133Z 05002KT 26/19 A2994 RMK A01 T02550192  RH  068%=      5-min Rain = 0
KCL2 131134Z 01005KT 26/19 A2994 RMK A01 T02550193  RH  068%=      5-min Rain = 0
KCL2 131135Z 02006KT 26/19 A2995 RMK A01 T02550193  RH  069%=      5-min Rain = 0
KCL2 131136Z 02005KT 26/19 A2995 RMK A01 T02550194  RH  069%=      5-min Rain = 0
KCL2 131137Z 02006KT 25/19 A2995 RMK A01 T02540194  RH  069%=      5-min Rain = 0
KCL2 131138Z 02005KT 25/19 A2995 RMK A01 T02540194  RH  069%=      5-min Rain = 0
KCL2 131139Z 03006KT 26/19 A2995 RMK A01 T02550194  RH  069%=      5-min Rain = 0
KCL2 131140Z 02006KT 26/19 A2995 RMK A01 T02550193  RH  069%=      5-min Rain = 0
KCL2 131141Z 03004KT 26/19 A2995 RMK A01 T02550193  RH  069%=      5-min Rain = 0
KCL2 131142Z 06006KT 26/19 A2995 RMK A01 T02550193  RH  068%=      5-min Rain = 0
KCL2 131143Z 09005KT 26/19 A2995 RMK A01 T02550192  RH  068%=      5-min Rain = 0
KCL2 131144Z 10005KT 26/19 A2995 RMK A01 T02550192  RH  068%=      5-min Rain = 0
KCL2 131145Z 11006KT 26/19 A2994 RMK A01 T02560192  RH  068%=      5-min Rain = 0
KCL2 131146Z 13007KT 26/19 A2994 RMK A01 T02560192  RH  068%=      5-min Rain = 0
KCL2 131147Z 14007KT 26/19 A2994 RMK A01 T02560192  RH  068%=      5-min Rain = 0
KCL2 131148Z 15008KT 26/19 A2994 RMK A01 T02560192  RH  068%=      5-min Rain = 0
KCL2 131149Z 15009KT 26/19 A2994 RMK A01 T02560192  RH  068%=      5-min Rain = 0
KCL2 131150Z 13007KT 26/19 A2994 RMK A01 T02560192  RH  068%=      5-min Rain = 0
KCL2 131151Z 15006KT 26/19 A2994 RMK A01 T02560192  RH  068%=      5-min Rain = 0
KCL2 131152Z 15007KT 26/19 A2994 RMK A01 T02560192  RH  068%=      5-min Rain = 0
KCL2 131153Z 15006KT 26/19 A2994 RMK A01 T02560192  RH  068%=      5-min Rain = 0
KCL2 131154Z 16007KT 26/19 A2994 RMK A01 T02560193  RH  068%=      5-min Rain = 0
KCL2 131155Z 16007KT 26/19 A2994 RMK A01 T02560194  RH  068%=      5-min Rain = 0
KCL2 131156Z 16006KT 26/19 A2994 RMK A01 T02560194  RH  069%=      5-min Rain = 0
KCL2 131157Z 15006KT 26/19 A2994 RMK A01 T02560194  RH  069%=      5-min Rain = 0
KCL2 131158Z 16005KT 26/20 A2994 RMK A01 T02560195  RH  069%=      5-min Rain = 0
KCL2 131159Z 16006KT 26/20 A2994 RMK A01 T02570195  RH  069%=      5-min Rain = 0
KCL2 131200Z 15005KT 26/20 A2994 RMK A01 T02570195  RH  069%=      5-min Rain = 0
KCL2 131201Z 15007KT 26/20 A2994 RMK A01 T02570196  RH  069%=      5-min Rain = 0
KCL2 131202Z 15006KT 26/20 A2995 RMK A01 T02570196  RH  069%=      5-min Rain = 0
KCL2 131203Z 15006KT 26/20 A2995 RMK A01 T02570197  RH  069%=      5-min Rain = 0
KCL2 131204Z 14004KT 26/20 A2995 RMK A01 T02570197  RH  069%=      5-min Rain = 0
KCL2 131205Z 13005KT 26/20 A2995 RMK A01 T02570196  RH  069%=      5-min Rain = 0
KCL2 131206Z 12005KT 26/20 A2995 RMK A01 T02570197  RH  069%=      5-min Rain = 0
KCL2 131207Z 12004KT 26/20 A2995 RMK A01 T02570197  RH  069%=      5-min Rain = 0
KCL2 131208Z 12006KT 26/20 A2995 RMK A01 T02570197  RH  070%=      5-min Rain = 0
KCL2 131209Z 12005KT 26/20 A2995 RMK A01 T02570197  RH  070%=      5-min Rain = 0
KCL2 131210Z 12004KT 26/20 A2996 RMK A01 T02570197  RH  070%=      5-min Rain = 0
KCL2 131211Z 13007KT 26/20 A2996 RMK A01 T02570197  RH  070%=      5-min Rain = 0
KCL2 131212Z 11006KT 26/20 A2996 RMK A01 T02570198  RH  070%=      5-min Rain = 0
KCL2 131213Z 11006KT 26/20 A2996 RMK A01 T02570198  RH  070%=      5-min Rain = 0
KCL2 131214Z 12006KT 26/20 A2996 RMK A01 T02560197  RH  070%=      5-min Rain = 0
KCL2 131215Z 12006KT 26/20 A2996 RMK A01 T02560197  RH  070%=      5-min Rain = 0
KCL2 131216Z 13006KT 26/20 A2996 RMK A01 T02560197  RH  070%=      5-min Rain = 0
KCL2 131217Z 13007KT 26/20 A2996 RMK A01 T02560197  RH  070%=      5-min Rain = 0
KCL2 131218Z 13007KT 26/20 A2996 RMK A01 T02560197  RH  070%=      5-min Rain = 0
KCL2 131219Z 13006KT 26/20 A2996 RMK A01 T02560197  RH  070%=      5-min Rain = 0
KCL2 131220Z 14006KT 26/20 A2996 RMK A01 T02560197  RH  070%=      5-min Rain = 0
KCL2 131221Z 14006KT 26/20 A2996 RMK A01 T02560197  RH  070%=      5-min Rain = 0
KCL2 131222Z 15006KT 26/20 A2996 RMK A01 T02560198  RH  070%=      5-min Rain = 0
KCL2 131223Z 15006KT 26/20 A2996 RMK A01 T02560198  RH  070%=      5-min Rain = 0
KCL2 131224Z 14006KT 26/20 A2996 RMK A01 T02550198  RH  071%=      5-min Rain = 0
KCL2 131225Z 15006KT 26/20 A2996 RMK A01 T02560198  RH  071%=      5-min Rain = 0
KCL2 131226Z 15007KT 26/20 A2996 RMK A01 T02550198  RH  071%=      5-min Rain = 0
KCL2 131227Z 16006KT 26/20 A2996 RMK A01 T02550199  RH  071%=      5-min Rain = 0
KCL2 131228Z 15007KT 26/20 A2996 RMK A01 T02550199  RH  071%=      5-min Rain = 0
KCL2 131229Z 14006KT 26/20 A2996 RMK A01 T02550199  RH  071%=      5-min Rain = 0
KCL2 131230Z 15005KT 26/20 A2996 RMK A01 T02550199  RH  071%=      5-min Rain = 0
KCL2 131231Z 16004KT 26/20 A2996 RMK A01 T02550199  RH  071%=      5-min Rain = 0
KCL2 131232Z 15004KT 26/20 A2996 RMK A01 T02550199  RH  071%=      5-min Rain = 0
KCL2 131233Z 15003KT 26/20 A2996 RMK A01 T02550200  RH  072%=      5-min Rain = 0
KCL2 131234Z 14003KT 25/20 A2996 RMK A01 T02540200  RH  072%=      5-min Rain = 0
KCL2 131235Z 14005KT 25/20 A2996 RMK A01 T02540199  RH  072%=      5-min Rain = 0
KCL2 131236Z 15005KT 25/20 A2996 RMK A01 T02540200  RH  072%=      5-min Rain = 0
KCL2 131237Z 14004KT 26/20 A2996 RMK A01 T02550200  RH  072%=      5-min Rain = 0
KCL2 131238Z 15007KT 25/20 A2996 RMK A01 T02540200  RH  072%=      5-min Rain = 0
KCL2 131239Z 14006KT 25/20 A2996 RMK A01 T02540200  RH  072%=      5-min Rain = 0
KCL2 131240Z 15006KT 25/20 A2996 RMK A01 T02540200  RH  072%=      5-min Rain = 0
KCL2 131241Z 14005KT 26/20 A2996 RMK A01 T02550201  RH  072%=      5-min Rain = 0
KCL2 131242Z 14005KT 26/20 A2996 RMK A01 T02550201  RH  072%=      5-min Rain = 0
KCL2 131243Z 15007KT 25/20 A2997 RMK A01 T02540201  RH  072%=      5-min Rain = 0
KCL2 131244Z 15005KT 25/20 A2996 RMK A01 T02540200  RH  072%=      5-min Rain = 0
KCL2 131245Z 15005KT 26/20 A2996 RMK A01 T02550201  RH  072%=      5-min Rain = 0
KCL2 131246Z 14004KT 25/20 A2996 RMK A01 T02540201  RH  072%=      5-min Rain = 0
KCL2 131247Z 15005KT 25/20 A2996 RMK A01 T02540201  RH  072%=      5-min Rain = 0
KCL2 131248Z 15005KT 25/20 A2997 RMK A01 T02540201  RH  072%=      5-min Rain = 0
KCL2 131249Z 14006KT 26/20 A2997 RMK A01 T02550202  RH  072%=      5-min Rain = 0
KCL2 131250Z 14004KT 25/20 A2997 RMK A01 T02540201  RH  072%=      5-min Rain = 0
KCL2 131251Z 15004KT 25/20 A2997 RMK A01 T02540201  RH  073%=      5-min Rain = 0
KCL2 131252Z 15003KT 26/20 A2997 RMK A01 T02550202  RH  073%=      5-min Rain = 0
KCL2 131253Z 16004KT 26/20 A2997 RMK A01 T02550202  RH  073%=      5-min Rain = 0
KCL2 131254Z 16002KT 26/20 A2997 RMK A01 T02550202  RH  073%=      5-min Rain = 0
KCL2 131255Z 16001KT 26/20 A2997 RMK A01 T02550203  RH  073%=      5-min Rain = 0
KCL2 131256Z 16004KT 26/20 A2997 RMK A01 T02550203  RH  073%=      5-min Rain = 0
KCL2 131257Z 18003KT 26/20 A2997 RMK A01 T02550203  RH  073%=      5-min Rain = 0
KCL2 131258Z 18003KT 26/20 A2997 RMK A01 T02560203  RH  073%=      5-min Rain = 0
KCL2 131259Z 16004KT 26/20 A2997 RMK A01 T02560204  RH  073%=      5-min Rain = 0
KCL2 131300Z 16005KT 26/20 A2997 RMK A01 T02560204  RH  073%=      5-min Rain = 0
KCL2 131301Z 17006KT 26/20 A2997 RMK A01 T02560204  RH  073%=      5-min Rain = 0
KCL2 131302Z 16005KT 26/20 A2997 RMK A01 T02560204  RH  073%=      5-min Rain = 0
KCL2 131303Z 15006KT 26/20 A2997 RMK A01 T02560204  RH  073%=      5-min Rain = 0
KCL2 131304Z 15007KT 26/20 A2997 RMK A01 T02560204  RH  073%=      5-min Rain = 0
KCL2 131305Z 15005KT 26/20 A2997 RMK A01 T02560204  RH  073%=      5-min Rain = 0
KCL2 131306Z 15006KT 26/21 A2997 RMK A01 T02560205  RH  073%=      5-min Rain = 0
KCL2 131307Z 15005KT 26/21 A2997 RMK A01 T02560205  RH  073%=      5-min Rain = 0
KCL2 131308Z 14006KT 26/21 A2997 RMK A01 T02570205  RH  073%=      5-min Rain = 0
KCL2 131309Z 13005KT 26/21 A2997 RMK A01 T02570206  RH  073%=      5-min Rain = 0
KCL2 131310Z 14004KT 26/21 A2997 RMK A01 T02570206  RH  073%=      5-min Rain = 0
KCL2 131311Z 14005KT 26/21 A2998 RMK A01 T02570206  RH  073%=      5-min Rain = 0
KCL2 131312Z 12003KT 26/21 A2998 RMK A01 T02580206  RH  073%=      5-min Rain = 0
KCL2 131313Z 13004KT 26/21 A2998 RMK A01 T02580207  RH  073%=      5-min Rain = 0
KCL2 131314Z 12003KT 26/21 A2998 RMK A01 T02590207  RH  073%=      5-min Rain = 0
KCL2 131315Z 11004KT 26/21 A2998 RMK A01 T02590207  RH  073%=      5-min Rain = 0
KCL2 131316Z 11004KT 26/21 A2998 RMK A01 T02590207  RH  073%=      5-min Rain = 0
KCL2 131317Z 11004KT 26/21 A2998 RMK A01 T02590208  RH  073%=      5-min Rain = 0
KCL2 131318Z 11004KT 26/21 A2998 RMK A01 T02600208  RH  073%=      5-min Rain = 0
KCL2 131319Z 11005KT 26/21 A2998 RMK A01 T02610208  RH  073%=      5-min Rain = 0
KCL2 131320Z 12005KT 26/21 A2998 RMK A01 T02610208  RH  072%=      5-min Rain = 0
KCL2 131321Z 12005KT 26/21 A2998 RMK A01 T02620208  RH  072%=      5-min Rain = 0
KCL2 131322Z 12004KT 26/21 A2998 RMK A01 T02620209  RH  072%=      5-min Rain = 0
KCL2 131323Z 12006KT 26/21 A2998 RMK A01 T02630209  RH  072%=      5-min Rain = 0
KCL2 131324Z 13006KT 26/21 A2998 RMK A01 T02630209  RH  072%=      5-min Rain = 0
KCL2 131325Z 12006KT 26/21 A2998 RMK A01 T02630210  RH  073%=      5-min Rain = 0
KCL2 131326Z 12007KT 26/21 A2998 RMK A01 T02630209  RH  072%=      5-min Rain = 0
KCL2 131327Z 12007KT 26/21 A2999 RMK A01 T02640210  RH  072%=      5-min Rain = 0
KCL2 131328Z 13007KT 27/21 A2999 RMK A01 T02650210  RH  072%=      5-min Rain = 0
KCL2 131329Z 12007KT 27/21 A2999 RMK A01 T02660210  RH  071%=      5-min Rain = 0
KCL2 131330Z 12006KT 27/21 A2999 RMK A01 T02680211  RH  071%=      5-min Rain = 0
KCL2 131331Z 13005KT 27/21 A2999 RMK A01 T02680211  RH  071%=      5-min Rain = 0
KCL2 131332Z 12004KT 27/21 A2999 RMK A01 T02680212  RH  071%=      5-min Rain = 0
KCL2 131333Z 12005KT 27/21 A2999 RMK A01 T02680212  RH  072%=      5-min Rain = 0
KCL2 131334Z 11005KT 27/21 A2999 RMK A01 T02680212  RH  071%=      5-min Rain = 0
KCL2 131335Z 12004KT 27/21 A2999 RMK A01 T02670212  RH  072%=      5-min Rain = 0
KCL2 131336Z 13004KT 27/21 A2999 RMK A01 T02670212  RH  072%=      5-min Rain = 0
KCL2 131337Z 12005KT 27/21 A2999 RMK A01 T02670212  RH  072%=      5-min Rain = 0
KCL2 131338Z 12006KT 27/21 A2999 RMK A01 T02680213  RH  072%=      5-min Rain = 0
KCL2 131339Z 13006KT 27/21 A2999 RMK A01 T02680213  RH  072%=      5-min Rain = 0
KCL2 131340Z 13005KT 27/21 A2999 RMK A01 T02680213  RH  072%=      5-min Rain = 0
KCL2 131341Z 13006KT 27/21 A2999 RMK A01 T02690213  RH  071%=      5-min Rain = 0
KCL2 131342Z 13007KT 27/21 A2999 RMK A01 T02690213  RH  071%=      5-min Rain = 0
KCL2 131343Z 13007KT 27/21 A2999 RMK A01 T02700214  RH  071%=      5-min Rain = 0
KCL2 131344Z 13007KT 27/21 A2999 RMK A01 T02720214  RH  071%=      5-min Rain = 0
KCL2 131345Z 14007KT 27/22 A2999 RMK A01 T02730215  RH  071%=      5-min Rain = 0
KCL2 131346Z 14008KT 28/22 A2999 RMK A01 T02750215  RH  070%=      5-min Rain = 0
KCL2 131347Z 15007KT 28/22 A2999 RMK A01 T02750215  RH  070%=      5-min Rain = 0
KCL2 131348Z 15008KT 28/22 A2999 RMK A01 T02760216  RH  070%=      5-min Rain = 0
KCL2 131349Z 16008KT 28/22 A2999 RMK A01 T02760216  RH  070%=      5-min Rain = 0
KCL2 131350Z 16009KT 28/22 A2999 RMK A01 T02760216  RH  070%=      5-min Rain = 0
KCL2 131351Z 16007KT 28/22 A2999 RMK A01 T02770216  RH  070%=      5-min Rain = 0
KCL2 131352Z 15007KT 28/22 A2999 RMK A01 T02770216  RH  069%=      5-min Rain = 0
KCL2 131353Z 16008KT 28/22 A2999 RMK A01 T02770217  RH  070%=      5-min Rain = 0
KCL2 131354Z 17007KT 28/22 A2999 RMK A01 T02770217  RH  070%=      5-min Rain = 0
KCL2 131355Z 16008KT 28/22 A2999 RMK A01 T02760217  RH  070%=      5-min Rain = 0
KCL2 131356Z 16007KT 28/22 A2999 RMK A01 T02770216  RH  070%=      5-min Rain = 0
KCL2 131357Z 15005KT 28/22 A2999 RMK A01 T02770217  RH  070%=      5-min Rain = 0
KCL2 131358Z 15006KT 28/22 A2999 RMK A01 T02780218  RH  070%=      5-min Rain = 0
KCL2 131359Z 15007KT 28/22 A2999 RMK A01 T02790218  RH  069%=      5-min Rain = 0
KCL2 131400Z 15005KT 28/22 A2999 RMK A01 T02790218  RH  069%=      5-min Rain = 0
KCL2 131401Z 14006KT 28/22 A2999 RMK A01 T02780218  RH  070%=      5-min Rain = 0
KCL2 131402Z 15006KT 28/22 A2999 RMK A01 T02770218  RH  070%=      5-min Rain = 0
KCL2 131403Z 14006KT 28/22 A2999 RMK A01 T02770218  RH  070%=      5-min Rain = 0
KCL2 131404Z 14006KT 28/22 A2999 RMK A01 T02760218  RH  071%=      5-min Rain = 0
KCL2 131405Z 15007KT 28/22 A2999 RMK A01 T02770219  RH  071%=      5-min Rain = 0
KCL2 131406Z 15008KT 28/22 A2999 RMK A01 T02770218  RH  070%=      5-min Rain = 0
KCL2 131407Z 15008KT 28/22 A2999 RMK A01 T02770218  RH  070%=      5-min Rain = 0
KCL2 131408Z 15006KT 28/22 A2999 RMK A01 T02770218  RH  070%=      5-min Rain = 0
KCL2 131409Z 14008KT 28/22 A2999 RMK A01 T02770219  RH  071%=      5-min Rain = 0
KCL2 131410Z 14009KT 28/22 A2999 RMK A01 T02770218  RH  071%=      5-min Rain = 0
KCL2 131411Z 14009KT 28/22 A2999 RMK A01 T02760218  RH  071%=      5-min Rain = 0
KCL2 131412Z 14009KT 28/22 A2999 RMK A01 T02760219  RH  071%=      5-min Rain = 0
KCL2 131413Z 14006KT 28/22 A2999 RMK A01 T02760219  RH  071%=      5-min Rain = 0
KCL2 131414Z 13007KT 28/22 A2999 RMK A01 T02760219  RH  071%=      5-min Rain = 0
KCL2 131415Z 13006KT 28/22 A2999 RMK A01 T02770219  RH  071%=      5-min Rain = 0
KCL2 131416Z 13005KT 28/22 A2999 RMK A01 T02770219  RH  071%=      5-min Rain = 0
KCL2 131417Z 14005KT 28/22 A2999 RMK A01 T02780219  RH  071%=      5-min Rain = 0
KCL2 131418Z 14005KT 28/22 A2999 RMK A01 T02780220  RH  071%=      5-min Rain = 0
KCL2 131419Z 15006KT 28/22 A2999 RMK A01 T02790220  RH  070%=      5-min Rain = 0
KCL2 131420Z 15007KT 28/22 A2999 RMK A01 T02790219  RH  070%=      5-min Rain = 0
KCL2 131421Z 15007KT 28/22 A2999 RMK A01 T02790219  RH  070%=      5-min Rain = 0
KCL2 131422Z 16006KT 28/22 A2999 RMK A01 T02790220  RH  070%=      5-min Rain = 0
KCL2 131423Z 15007KT 28/22 A2999 RMK A01 T02790220  RH  070%=      5-min Rain = 0
KCL2 131424Z 16006KT 28/22 A2999 RMK A01 T02790219  RH  070%=      5-min Rain = 0
KCL2 131425Z 16006KT 28/22 A2999 RMK A01 T02800220  RH  070%=      5-min Rain = 0
KCL2 131426Z 16005KT 28/22 A2999 RMK A01 T02800219  RH  070%=      5-min Rain = 0
KCL2 131427Z 17005KT 28/22 A2999 RMK A01 T02820220  RH  069%=      5-min Rain = 0
KCL2 131428Z 16006KT 29/22 A2999 RMK A01 T02850220  RH  068%=      5-min Rain = 0
KCL2 131429Z 16007KT 29/22 A2999 RMK A01 T02870221  RH  068%=      5-min Rain = 0
KCL2 131430Z 14007KT 29/22 A2999 RMK A01 T02880220  RH  067%=      5-min Rain = 0
KCL2 131431Z 14007KT 29/22 A2999 RMK A01 T02880219  RH  066%=      5-min Rain = 0
KCL2 131432Z 15006KT 29/22 A2999 RMK A01 T02890220  RH  066%=      5-min Rain = 0
KCL2 131433Z 14007KT 29/22 A2999 RMK A01 T02910221  RH  066%=      5-min Rain = 0
KCL2 131434Z 14006KT 29/22 A2999 RMK A01 T02920220  RH  065%=      5-min Rain = 0
KCL2 131435Z 13005KT 29/22 A2999 RMK A01 T02910220  RH  066%=      5-min Rain = 0
KCL2 131436Z 16006KT 29/22 A2999 RMK A01 T02900221  RH  066%=      5-min Rain = 0
KCL2 131437Z 18006KT 29/22 A2999 RMK A01 T02900220  RH  066%=      5-min Rain = 0
KCL2 131438Z 17007KT 29/22 A2999 RMK A01 T02900219  RH  066%=      5-min Rain = 0
KCL2 131439Z 17004KT 29/22 A30 RMK A01 T02890217  RH  065%=      5-min Rain = 0
KCL2 131440Z 20006KT 29/22 A30 RMK A01 T02890218  RH  066%=      5-min Rain = 0
KCL2 131441Z 19006KT 29/22 A30 RMK A01 T02900218  RH  065%=      5-min Rain = 0
KCL2 131442Z 16005KT 29/22 A30 RMK A01 T02890219  RH  066%=      5-min Rain = 0
KCL2 131443Z 17005KT 29/22 A30 RMK A01 T02880219  RH  066%=      5-min Rain = 0
KCL2 131444Z 18004KT 29/22 A2999 RMK A01 T02880218  RH  066%=      5-min Rain = 0
KCL2 131445Z 17005KT 29/22 A2999 RMK A01 T02870220  RH  067%=      5-min Rain = 0
KCL2 131446Z 18006KT 29/22 A2999 RMK A01 T02870219  RH  067%=      5-min Rain = 0
KCL2 131447Z 18006KT 29/22 A2999 RMK A01 T02870219  RH  066%=      5-min Rain = 0
KCL2 131448Z 18005KT 29/22 A2999 RMK A01 T02870218  RH  066%=      5-min Rain = 0
KCL2 131449Z 19006KT 29/22 A2999 RMK A01 T02870219  RH  067%=      5-min Rain = 0
KCL2 131450Z 18005KT 29/22 A2999 RMK A01 T02860219  RH  067%=      5-min Rain = 0
KCL2 131451Z 17005KT 29/22 A2999 RMK A01 T02860219  RH  067%=      5-min Rain = 0
KCL2 131452Z 16004KT 29/22 A2999 RMK A01 T02860220  RH  067%=      5-min Rain = 0
KCL2 131453Z 14003KT 29/22 A2999 RMK A01 T02870221  RH  067%=      5-min Rain = 0
KCL2 131454Z 15004KT 29/22 A2999 RMK A01 T02880221  RH  067%=      5-min Rain = 0
KCL2 131455Z 19004KT 29/22 A2999 RMK A01 T02880221  RH  067%=      5-min Rain = 0
KCL2 131456Z 19005KT 29/22 A2999 RMK A01 T02890221  RH  067%=      5-min Rain = 0
KCL2 131457Z 19005KT 29/22 A2999 RMK A01 T02890220  RH  066%=      5-min Rain = 0
KCL2 131458Z 19006KT 29/22 A2999 RMK A01 T02900218  RH  065%=      5-min Rain = 0
KCL2 131459Z 18004KT 29/22 A2999 RMK A01 T02900217  RH  065%=      5-min Rain = 0
KCL2 131500Z 17005KT 29/22 A2999 RMK A01 T02890218  RH  065%=      5-min Rain = 0
KCL2 131501Z 18005KT 29/22 A2999 RMK A01 T02890217  RH  065%=      5-min Rain = 0
KCL2 131502Z 19006KT 29/22 A2999 RMK A01 T02890218  RH  065%=      5-min Rain = 0
KCL2 131503Z 20006KT 29/22 A2999 RMK A01 T02890216  RH  065%=      5-min Rain = 0
KCL2 131504Z 20007KT 29/22 A30 RMK A01 T02890216  RH  065%=      5-min Rain = 0
KCL2 131505Z 20006KT 29/22 A30 RMK A01 T02890216  RH  065%=      5-min Rain = 0
KCL2 131506Z 20006KT 29/22 A30 RMK A01 T02890217  RH  065%=      5-min Rain = 0
KCL2 131507Z 20007KT 29/22 A2999 RMK A01 T02900216  RH  064%=      5-min Rain = 0
KCL2 131508Z 20005KT 29/22 A2999 RMK A01 T02900217  RH  065%=      5-min Rain = 0
KCL2 131509Z 20007KT 29/22 A2999 RMK A01 T02900218  RH  065%=      5-min Rain = 0
KCL2 131510Z 20007KT 29/22 A2999 RMK A01 T02910217  RH  064%=      5-min Rain = 0
KCL2 131511Z 21006KT 29/22 A2999 RMK A01 T02910217  RH  064%=      5-min Rain = 0
KCL2 131512Z 20006KT 29/22 A30 RMK A01 T02910217  RH  064%=      5-min Rain = 0
KCL2 131513Z 21006KT 29/22 A30 RMK A01 T02910217  RH  064%=      5-min Rain = 0
KCL2 131514Z 21007KT 29/22 A30 RMK A01 T02920217  RH  064%=      5-min Rain = 0
KCL2 131515Z 22008KT 29/22 A30 RMK A01 T02920218  RH  064%=      5-min Rain = 0
KCL2 131516Z 21006KT 29/22 A30 RMK A01 T02920217  RH  064%=      5-min Rain = 0
KCL2 131517Z 21004KT 29/22 A30 RMK A01 T02920216  RH  064%=      5-min Rain = 0
KCL2 131518Z 20005KT 29/22 A30 RMK A01 T02920216  RH  064%=      5-min Rain = 0
KCL2 131519Z 22005KT 29/22 A30 RMK A01 T02930216  RH  063%=      5-min Rain = 0
KCL2 131520Z 22007KT 29/22 A30 RMK A01 T02930216  RH  063%=      5-min Rain = 0
KCL2 131521Z 20007KT 29/22 A30 RMK A01 T02940215  RH  063%=      5-min Rain = 0
KCL2 131522Z 19005KT 30/22 A30 RMK A01 T02950216  RH  063%=      5-min Rain = 0
KCL2 131523Z 19005KT 30/22 A30 RMK A01 T02970219  RH  063%=      5-min Rain = 0
KCL2 131524Z 18006KT 30/22 A30 RMK A01 T03000217  RH  061%=      5-min Rain = 0
KCL2 131525Z 20007KT 30/22 A30 RMK A01 T03020218  RH  061%=      5-min Rain = 0
KCL2 131526Z 20005KT 30/22 A30 RMK A01 T03030217  RH  060%=      5-min Rain = 0
KCL2 131527Z 23004KT 30/22 A30 RMK A01 T03030216  RH  060%=      5-min Rain = 0
KCL2 131528Z 22004KT 30/22 A30 RMK A01 T03030217  RH  060%=      5-min Rain = 0
KCL2 131529Z 22004KT 30/22 A30 RMK A01 T03040219  RH  060%=      5-min Rain = 0
KCL2 131530Z 23007KT 30/22 A30 RMK A01 T03040217  RH  060%=      5-min Rain = 0
KCL2 131531Z 22007KT 30/22 A30 RMK A01 T03020216  RH  060%=      5-min Rain = 0
KCL2 131532Z 21005KT 30/22 A30 RMK A01 T03000217  RH  061%=      5-min Rain = 0
KCL2 131533Z 22005KT 30/22 A30 RMK A01 T03000218  RH  061%=      5-min Rain = 0
KCL2 131534Z 22006KT 30/22 A2999 RMK A01 T03020220  RH  061%=      5-min Rain = 0
KCL2 131535Z 20007KT 31/22 A2999 RMK A01 T03050219  RH  060%=      5-min Rain = 0
KCL2 131536Z 20007KT 30/22 A2999 RMK A01 T03040218  RH  060%=      5-min Rain = 0
KCL2 131537Z 21006KT 30/22 A2999 RMK A01 T03020218  RH  061%=      5-min Rain = 0
KCL2 131538Z 19005KT 30/22 A2999 RMK A01 T03030217  RH  060%=      5-min Rain = 0
KCL2 131539Z 19006KT 30/22 A2999 RMK A01 T03040219  RH  060%=      5-min Rain = 0
KCL2 131540Z 19007KT 31/22 A2999 RMK A01 T03080218  RH  059%=      5-min Rain = 0
KCL2 131541Z 19007KT 31/22 A2999 RMK A01 T03090218  RH  059%=      5-min Rain = 0
KCL2 131542Z 19007KT 31/22 A2999 RMK A01 T03090219  RH  059%=      5-min Rain = 0
KCL2 131543Z 18005KT 31/22 A30 RMK A01 T03090219  RH  059%=      5-min Rain = 0
KCL2 131544Z 20005KT 31/22 A30 RMK A01 T03100219  RH  058%=      5-min Rain = 0
KCL2 131545Z 22006KT 31/22 A30 RMK A01 T03110221  RH  059%=      5-min Rain = 0
KCL2 131546Z 21006KT 31/22 A30 RMK A01 T03120219  RH  058%=      5-min Rain = 0
KCL2 131547Z 21004KT 31/22 A30 RMK A01 T03110220  RH  058%=      5-min Rain = 0
KCL2 131548Z 21003KT 31/22 A30 RMK A01 T03100220  RH  058%=      5-min Rain = 0
KCL2 131549Z 22004KT 31/22 A30 RMK A01 T03100221  RH  059%=      5-min Rain = 0
KCL2 131550Z 20007KT 31/22 A2999 RMK A01 T03140222  RH  058%=      5-min Rain = 0
KCL2 131551Z 22006KT 32/22 A2999 RMK A01 T03160219  RH  056%=      5-min Rain = 0
KCL2 131552Z 19004KT 31/22 A2999 RMK A01 T03130220  RH  058%=      5-min Rain = 0
KCL2 131553Z 20006KT 31/22 A2999 RMK A01 T03130220  RH  058%=      5-min Rain = 0
KCL2 131554Z 23006KT 32/22 A2999 RMK A01 T03150221  RH  057%=      5-min Rain = 0
KCL2 131555Z 19004KT 32/22 A2999 RMK A01 T03160221  RH  057%=      5-min Rain = 0
KCL2 131556Z 18006KT 32/22 A2999 RMK A01 T03170221  RH  057%=      5-min Rain = 0
KCL2 131557Z 22008KT 32/22 A2999 RMK A01 T03200221  RH  056%=      5-min Rain = 0
KCL2 131558Z 23005KT 32/22 A2999 RMK A01 T03200221  RH  056%=      5-min Rain = 0
KCL2 131559Z 20008KT 32/22 A2999 RMK A01 T03190222  RH  056%=      5-min Rain = 0
KCL2 131600Z 19007KT 32/22 A2999 RMK A01 T03210220  RH  055%=      5-min Rain = 0
KCL2 131601Z 21009KT 33/22 A2999 RMK A01 T03250223  RH  055%=      5-min Rain = 0
KCL2 131602Z 19007KT 33/22 A2999 RMK A01 T03260222  RH  054%=      5-min Rain = 0
KCL2 131603Z 20009KT 33/22 A2999 RMK A01 T03260220  RH  053%=      5-min Rain = 0
KCL2 131604Z 19007KT 33/22 A2999 RMK A01 T03260220  RH  054%=      5-min Rain = 0
KCL2 131605Z 20006KT 33/22 A2999 RMK A01 T03270223  RH  054%=      5-min Rain = 0
KCL2 131606Z 20006KT 33/22 A2999 RMK A01 T03290221  RH  053%=      5-min Rain = 0
KCL2 131607Z 19007KT 33/22 A2999 RMK A01 T03280222  RH  054%=      5-min Rain = 0
KCL2 131608Z 21008KT 33/22 A2999 RMK A01 T03280221  RH  054%=      5-min Rain = 0
KCL2 131609Z 21007KT 33/22 A30 RMK A01 T03320217  RH  051%=      5-min Rain = 0
KCL2 131610Z 19005KT 33/21 A30 RMK A01 T03320213  RH  050%=      5-min Rain = 0
KCL2 131611Z 19006KT 33/22 A30 RMK A01 T03310216  RH  051%=      5-min Rain = 0
KCL2 131612Z 22006KT 33/22 A30 RMK A01 T03340219  RH  051%=      5-min Rain = 0
KCL2 131613Z 21004KT 34/22 A30 RMK A01 T03370215  RH  049%=      5-min Rain = 0
KCL2 131614Z 22005KT 33/21 A30 RMK A01 T03330214  RH  050%=      5-min Rain = 0
KCL2 131615Z 22005KT 33/22 A30 RMK A01 T03280215  RH  051%=      5-min Rain = 0
KCL2 131616Z 20002KT 33/22 A30 RMK A01 T03270216  RH  052%=      5-min Rain = 0
KCL2 131617Z 22004KT 33/22 A30 RMK A01 T03260216  RH  052%=      5-min Rain = 0
KCL2 131618Z 24007KT 33/22 A30 RMK A01 T03250216  RH  053%=      5-min Rain = 0
KCL2 131619Z 24006KT 33/21 A30 RMK A01 T03250212  RH  051%=      5-min Rain = 0
KCL2 131620Z 24005KT 33/22 A30 RMK A01 T03260215  RH  052%=      5-min Rain = 0
KCL2 131621Z 24006KT 33/22 A30 RMK A01 T03290216  RH  052%=      5-min Rain = 0
KCL2 131622Z 22007KT 33/22 A30 RMK A01 T03310216  RH  051%=      5-min Rain = 0
KCL2 131623Z 23008KT 33/21 A30 RMK A01 T03340214  RH  049%=      5-min Rain = 0
KCL2 131624Z 23009KT 33/22 A30 RMK A01 T03340215  RH  050%=      5-min Rain = 0
KCL2 131625Z 23007KT 33/22 A30 RMK A01 T03330216  RH  050%=      5-min Rain = 0
KCL2 131626Z 22007KT 33/21 A30 RMK A01 T03300214  RH  051%=      5-min Rain = 0
KCL2 131627Z 21007KT 33/21 A30 RMK A01 T03270213  RH  051%=      5-min Rain = 0
KCL2 131628Z 23007KT 33/21 A30 RMK A01 T03260214  RH  052%=      5-min Rain = 0
KCL2 131629Z 22005KT 33/22 A30 RMK A01 T03280216  RH  052%=      5-min Rain = 0
KCL2 131630Z 20006KT 33/22 A30 RMK A01 T03290216  RH  051%=      5-min Rain = 0
KCL2 131631Z 20007KT 33/22 A30 RMK A01 T03280216  RH  052%=      5-min Rain = 0
KCL2 131632Z 20005KT 33/21 A30 RMK A01 T03270213  RH  051%=      5-min Rain = 0
KCL2 131633Z 20005KT 33/21 A2999 RMK A01 T03250211  RH  051%=      5-min Rain = 0
KCL2 131634Z 19007KT 32/21 A2999 RMK A01 T03240210  RH  051%=      5-min Rain = 0
KCL2 131635Z 20009KT 33/21 A2999 RMK A01 T03250211  RH  051%=      5-min Rain = 0
KCL2 131636Z 18007KT 33/21 A2999 RMK A01 T03290211  RH  050%=      5-min Rain = 0
KCL2 131637Z 23005KT 33/21 A2999 RMK A01 T03330211  RH  049%=      5-min Rain = 0
KCL2 131638Z 22003KT 34/21 A2999 RMK A01 T03350210  RH  048%=      5-min Rain = 0
KCL2 131639Z 23006KT 34/21 A2999 RMK A01 T03360210  RH  048%=      5-min Rain = 0
KCL2 131640Z 24006KT 33/21 A2999 RMK A01 T03340208  RH  047%=      5-min Rain = 0
KCL2 131641Z 23004KT 33/21 A2999 RMK A01 T03320209  RH  049%=      5-min Rain = 0
KCL2 131642Z 20006KT 33/21 A2999 RMK A01 T03310211  RH  049%=      5-min Rain = 0
KCL2 131643Z 19010KT 33/21 A2999 RMK A01 T03340209  RH  048%=      5-min Rain = 0
KCL2 131644Z 18007KT 33/21 A30 RMK A01 T03310207  RH  048%=      5-min Rain = 0
KCL2 131645Z 19006KT 33/21 A30 RMK A01 T03280208  RH  049%=      5-min Rain = 0
KCL2 131646Z 20005KT 33/21 A2999 RMK A01 T03270208  RH  050%=      5-min Rain = 0
KCL2 131647Z 17006KT 33/21 A2999 RMK A01 T03260210  RH  050%=      5-min Rain = 0
KCL2 131648Z 16009KT 33/21 A2999 RMK A01 T03280210  RH  050%=      5-min Rain = 0
KCL2 131649Z 15007KT 33/21 A2999 RMK A01 T03290208  RH  049%=      5-min Rain = 0
KCL2 131650Z 17008KT 33/21 A2999 RMK A01 T03280209  RH  049%=      5-min Rain = 0
KCL2 131651Z 21008KT 33/21 A2999 RMK A01 T03310206  RH  048%=      5-min Rain = 0
KCL2 131652Z 22008KT 34/21 A2999 RMK A01 T03360205  RH  046%=      5-min Rain = 0
KCL2 131653Z 21008KT 34/21 A2999 RMK A01 T03370206  RH  046%=      5-min Rain = 0
KCL2 131654Z 20007KT 33/21 A2999 RMK A01 T03340207  RH  047%=      5-min Rain = 0
KCL2 131655Z 18006KT 33/21 A2999 RMK A01 T03330206  RH  047%=      5-min Rain = 0
KCL2 131656Z 19006KT 33/21 A2999 RMK A01 T03320206  RH  047%=      5-min Rain = 0
KCL2 131657Z 19008KT 33/21 A2999 RMK A01 T03330207  RH  048%=      5-min Rain = 0
KCL2 131658Z 19007KT 33/21 A2999 RMK A01 T03330207  RH  048%=      5-min Rain = 0
KCL2 131659Z 19006KT 33/21 A2999 RMK A01 T03330206  RH  047%=      5-min Rain = 0
KCL2 131700Z 18006KT 33/21 A2999 RMK A01 T03340208  RH  048%=      5-min Rain = 0
KCL2 131701Z 18007KT 34/21 A2999 RMK A01 T03360209  RH  047%=      5-min Rain = 0
KCL2 131702Z 18004KT 34/21 A2999 RMK A01 T03370211  RH  048%=      5-min Rain = 0
KCL2 131703Z 20008KT 34/21 A2999 RMK A01 T03400212  RH  047%=      5-min Rain = 0
KCL2 131704Z 20008KT 34/21 A2999 RMK A01 T03410210  RH  046%=      5-min Rain = 0
KCL2 131705Z 18008KT 34/21 A2999 RMK A01 T03380208  RH  047%=      5-min Rain = 0
KCL2 131706Z 20010KT 34/21 A2999 RMK A01 T03370210  RH  047%=      5-min Rain = 0
KCL2 131707Z 21007KT 34/21 A2999 RMK A01 T03390211  RH  047%=      5-min Rain = 0
KCL2 131708Z 21008KT 34/21 A2999 RMK A01 T03400211  RH  047%=      5-min Rain = 0
KCL2 131709Z 20007KT 34/21 A2999 RMK A01 T03410210  RH  046%=      5-min Rain = 0
KCL2 131710Z 20005KT 34/21 A2999 RMK A01 T03390208  RH  046%=      5-min Rain = 0
KCL2 131711Z 18004KT 34/21 A2999 RMK A01 T03370209  RH  047%=      5-min Rain = 0
KCL2 131712Z 16003KT 34/21 A2999 RMK A01 T03380207  RH  046%=      5-min Rain = 0
KCL2 131713Z 20003KT 34/21 A2999 RMK A01 T03390209  RH  047%=      5-min Rain = 0
KCL2 131714Z 18006G11KT 34/21 A2999 RMK A01 T03390209  RH  047%=      5-min Rain = 0
KCL2 131715Z 16007KT 34/20 A2999 RMK A01 T03400204  RH  045%=      5-min Rain = 0
KCL2 131716Z 17008KT 34/21 A2999 RMK A01 T03410206  RH  045%=      5-min Rain = 0
KCL2 131717Z 18008KT 34/20 A2999 RMK A01 T03430204  RH  044%=      5-min Rain = 0
KCL2 131718Z 20006KT 34/21 A2999 RMK A01 T03420208  RH  046%=      5-min Rain = 0
KCL2 131719Z 19006G12KT 35/21 A2999 RMK A01 T03460209  RH  045%=      5-min Rain = 0
KCL2 131720Z 20008KT 35/21 A2999 RMK A01 T03480209  RH  044%=      5-min Rain = 0
KCL2 131721Z 21008KT 35/21 A2999 RMK A01 T03480208  RH  044%=      5-min Rain = 0
KCL2 131722Z 22007KT 35/21 A2999 RMK A01 T03450205  RH  044%=      5-min Rain = 0
KCL2 131723Z 22008KT 34/21 A2999 RMK A01 T03440207  RH  045%=      5-min Rain = 0
KCL2 131724Z 20007KT 35/21 A2999 RMK A01 T03480207  RH  044%=      5-min Rain = 0
KCL2 131725Z 19003KT 35/21 A2999 RMK A01 T03490208  RH  044%=      5-min Rain = 0
KCL2 131726Z 19003KT 35/21 A2999 RMK A01 T03480206  RH  044%=      5-min Rain = 0
KCL2 131727Z 19003KT 35/21 A2999 RMK A01 T03460206  RH  044%=      5-min Rain = 0
KCL2 131728Z 19007KT 34/20 A2999 RMK A01 T03440204  RH  044%=      5-min Rain = 0
KCL2 131729Z 23007KT 34/21 A2999 RMK A01 T03440205  RH  044%=      5-min Rain = 0
KCL2 131730Z 24006KT 35/20 A2999 RMK A01 T03450204  RH  044%=      5-min Rain = 0
KCL2 131731Z 23007KT 35/20 A2999 RMK A01 T03450204  RH  044%=      5-min Rain = 0
KCL2 131732Z 22006KT 34/20 A2999 RMK A01 T03440204  RH  044%=      5-min Rain = 0
KCL2 131733Z 23004KT 34/20 A2999 RMK A01 T03430204  RH  044%=      5-min Rain = 0
KCL2 131734Z 24005KT 34/21 A2999 RMK A01 T03430205  RH  044%=      5-min Rain = 0
KCL2 131735Z 25004KT 35/20 A2999 RMK A01 T03450204  RH  044%=      5-min Rain = 0
KCL2 131736Z 26005KT 35/21 A2999 RMK A01 T03480206  RH  044%=      5-min Rain = 0
KCL2 131737Z 24006KT 35/21 A2998 RMK A01 T03510207  RH  043%=      5-min Rain = 0
KCL2 131738Z 19007KT 35/21 A2998 RMK A01 T03520206  RH  043%=      5-min Rain = 0
KCL2 131739Z 20004KT 35/21 A2998 RMK A01 T03500206  RH  043%=      5-min Rain = 0
KCL2 131740Z 21005G10KT 35/21 A2998 RMK A01 T03500208  RH  043%=      5-min Rain = 0
KCL2 131741Z 20010KT 35/20 A2998 RMK A01 T03520201  RH  041%=      5-min Rain = 0
KCL2 131742Z 20011KT 35/20 A2998 RMK A01 T03540198  RH  040%=      5-min Rain = 0
KCL2 131743Z 18010KT 35/20 A2998 RMK A01 T03540196  RH  040%=      5-min Rain = 0
KCL2 131744Z 20007KT 36/20 A2998 RMK A01 T03550196  RH  039%=      5-min Rain = 0
KCL2 131745Z 20008KT 36/20 A2998 RMK A01 T03560197  RH  039%=      5-min Rain = 0
KCL2 131746Z 22009KT 36/20 A2998 RMK A01 T03570198  RH  039%=      5-min Rain = 0
KCL2 131747Z 22006KT 36/20 A2998 RMK A01 T03550197  RH  040%=      5-min Rain = 0
KCL2 131748Z 20006KT 35/20 A2998 RMK A01 T03530197  RH  040%=      5-min Rain = 0
KCL2 131749Z 21006KT 35/20 A2998 RMK A01 T03530198  RH  040%=      5-min Rain = 0
KCL2 131750Z 23006KT 35/20 A2998 RMK A01 T03530198  RH  040%=      5-min Rain = 0
KCL2 131751Z 24005KT 35/20 A2998 RMK A01 T03520199  RH  041%=      5-min Rain = 0
KCL2 131752Z 16008G13KT 35/20 A2998 RMK A01 T03540199  RH  040%=      5-min Rain = 0
KCL2 131753Z 13006KT 36/20 A2998 RMK A01 T03550196  RH  040%=      5-min Rain = 0
KCL2 131754Z 13004KT 35/20 A2998 RMK A01 T03510196  RH  040%=      5-min Rain = 0
KCL2 131755Z 16002KT 35/20 A2998 RMK A01 T03490197  RH  041%=      5-min Rain = 0
KCL2 131756Z 16003KT 35/20 A2998 RMK A01 T03500199  RH  041%=      5-min Rain = 0
KCL2 131757Z 13004KT 35/20 A2998 RMK A01 T03530201  RH  041%=      5-min Rain = 0
KCL2 131758Z 11005KT 36/20 A2998 RMK A01 T03550201  RH  041%=      5-min Rain = 0
KCL2 131759Z 23006KT 36/20 A2998 RMK A01 T03550203  RH  041%=      5-min Rain = 0
KCL2 131800Z 20004KT 36/20 A2998 RMK A01 T03580203  RH  041%=      5-min Rain = 0
KCL2 131801Z 18004KT 36/20 A2998 RMK A01 T03580203  RH  041%=      5-min Rain = 0
KCL2 131802Z 15003KT 36/20 A2998 RMK A01 T03580204  RH  041%=      5-min Rain = 0
KCL2 131803Z 16004KT 36/20 A2998 RMK A01 T03590202  RH  040%=      5-min Rain = 0
KCL2 131804Z 19003KT 36/20 A2998 RMK A01 T03580203  RH  040%=      5-min Rain = 0
KCL2 131805Z 20002KT 36/20 A2998 RMK A01 T03570203  RH  041%=      5-min Rain = 0
KCL2 131806Z 18004KT 36/21 A2998 RMK A01 T03580205  RH  041%=      5-min Rain = 0
KCL2 131807Z 13007KT 36/20 A2998 RMK A01 T03620199  RH  038%=      5-min Rain = 0
KCL2 131808Z 15006KT 36/20 A2998 RMK A01 T03640198  RH  038%=      5-min Rain = 0
KCL2 131809Z 14005KT 36/20 A2998 RMK A01 T03630198  RH  038%=      5-min Rain = 0
KCL2 131810Z 14004KT 36/20 A2998 RMK A01 T03610198  RH  039%=      5-min Rain = 0
KCL2 131811Z 15007KT 36/20 A2998 RMK A01 T03600201  RH  040%=      5-min Rain = 0
KCL2 131812Z 15006KT 36/20 A2998 RMK A01 T03600201  RH  040%=      5-min Rain = 0
KCL2 131813Z 15005KT 36/20 A2998 RMK A01 T03600202  RH  040%=      5-min Rain = 0
KCL2 131814Z 12005KT 36/20 A2998 RMK A01 T03600201  RH  040%=      5-min Rain = 0
KCL2 131815Z 13007KT 36/20 A2998 RMK A01 T03580200  RH  040%=      5-min Rain = 0
KCL2 131816Z 12005KT 36/20 A2998 RMK A01 T03570200  RH  040%=      5-min Rain = 0
KCL2 131817Z 07002KT 36/20 A2998 RMK A01 T03550201  RH  040%=      5-min Rain = 0
KCL2 131818Z 06004KT 36/20 A2998 RMK A01 T03560203  RH  041%=      5-min Rain = 0
KCL2 131819Z 09004KT 36/20 A2998 RMK A01 T03570203  RH  041%=      5-min Rain = 0
KCL2 131820Z 12005KT 36/20 A2998 RMK A01 T03570204  RH  041%=      5-min Rain = 0
KCL2 131821Z 16001KT 36/20 A2998 RMK A01 T03590203  RH  040%=      5-min Rain = 0
KCL2 131822Z 09002KT 36/20 A2998 RMK A01 T03600203  RH  040%=      5-min Rain = 0
KCL2 131823Z 09005KT 36/20 A2998 RMK A01 T03600202  RH  040%=      5-min Rain = 0
KCL2 131824Z 06004KT 36/20 A2998 RMK A01 T03570202  RH  041%=      5-min Rain = 0
KCL2 131825Z 06002KT 36/20 A2998 RMK A01 T03550204  RH  041%=      5-min Rain = 0
KCL2 131826Z 17003KT 36/20 A2998 RMK A01 T03570202  RH  041%=      5-min Rain = 0
KCL2 131827Z 18006KT 36/20 A2998 RMK A01 T03580198  RH  039%=      5-min Rain = 0
KCL2 131828Z 18002KT 36/20 A2998 RMK A01 T03580198  RH  039%=      5-min Rain = 0
KCL2 131829Z 16004KT 36/20 A2998 RMK A01 T03580197  RH  039%=      5-min Rain = 0
KCL2 131830Z 17003KT 36/20 A2998 RMK A01 T03580200  RH  040%=      5-min Rain = 0
KCL2 131831Z 18005KT 36/20 A2998 RMK A01 T03610199  RH  039%=      5-min Rain = 0
KCL2 131832Z 21005KT 36/20 A2998 RMK A01 T03620199  RH  039%=      5-min Rain = 0
KCL2 131833Z 25002KT 36/20 A2998 RMK A01 T03620200  RH  039%=      5-min Rain = 0
KCL2 131834Z 27002KT 36/20 A2997 RMK A01 T03620200  RH  039%=      5-min Rain = 0
KCL2 131835Z 25002KT 36/21 A2997 RMK A01 T03640205  RH  040%=      5-min Rain = 0
KCL2 131836Z 19004KT 37/21 A2997 RMK A01 T03690206  RH  039%=      5-min Rain = 0
KCL2 131837Z 21008KT 37/20 A2997 RMK A01 T03710199  RH  037%=      5-min Rain = 0
KCL2 131838Z 17006KT 37/20 A2997 RMK A01 T03670199  RH  037%=      5-min Rain = 0
KCL2 131839Z 14009KT 37/20 A2997 RMK A01 T03660202  RH  038%=      5-min Rain = 0
KCL2 131840Z 17006KT 37/20 A2997 RMK A01 T03710201  RH  037%=      5-min Rain = 0
KCL2 131841Z 18005KT 37/20 A2997 RMK A01 T03700200  RH  037%=      5-min Rain = 0
KCL2 131842Z 18004KT 37/20 A2997 RMK A01 T03670202  RH  038%=      5-min Rain = 0
KCL2 131843Z 22003KT 37/20 A2997 RMK A01 T03670202  RH  038%=      5-min Rain = 0
KCL2 131844Z 23003KT 37/20 A2997 RMK A01 T03660202  RH  039%=      5-min Rain = 0
KCL2 131845Z 24003KT 36/20 A2997 RMK A01 T03640200  RH  038%=      5-min Rain = 0
KCL2 131846Z 25002KT 36/20 A2997 RMK A01 T03590199  RH  039%=      5-min Rain = 0
KCL2 131847Z 23002KT 36/20 A2997 RMK A01 T03550199  RH  040%=      5-min Rain = 0
KCL2 131848Z 24003KT 36/20 A2997 RMK A01 T03560203  RH  041%=      5-min Rain = 0
KCL2 131849Z 17003KT 36/20 A2997 RMK A01 T03610204  RH  040%=      5-min Rain = 0
KCL2 131850Z 11004KT 37/20 A2997 RMK A01 T03660202  RH  038%=      5-min Rain = 0
KCL2 131851Z 15003KT 37/20 A2997 RMK A01 T03660200  RH  038%=      5-min Rain = 0
KCL2 131852Z 18004KT 37/20 A2997 RMK A01 T03670200  RH  038%=      5-min Rain = 0
KCL2 131853Z 11003KT 37/20 A2997 RMK A01 T03700198  RH  037%=      5-min Rain = 0
KCL2 131854Z 11008KT 37/20 A2997 RMK A01 T03700197  RH  037%=      5-min Rain = 0
KCL2 131855Z 11007KT 37/19 A2997 RMK A01 T03690192  RH  036%=      5-min Rain = 0
KCL2 131856Z 15010KT 37/19 A2997 RMK A01 T03700192  RH  035%=      5-min Rain = 0
KCL2 131857Z 13006KT 37/19 A2997 RMK A01 T03720189  RH  034%=      5-min Rain = 0
KCL2 131858Z 15007KT 37/19 A2997 RMK A01 T03700188  RH  035%=      5-min Rain = 0
KCL2 131859Z 17007KT 37/19 A2997 RMK A01 T03690187  RH  034%=      5-min Rain = 0
KCL2 131900Z 16004KT 37/19 A2997 RMK A01 T03680185  RH  034%=      5-min Rain = 0
KCL2 131901Z 20002KT 37/19 A2997 RMK A01 T03660187  RH  035%=      5-min Rain = 0
KCL2 131902Z 16004KT 36/19 A2997 RMK A01 T03640187  RH  035%=      5-min Rain = 0
KCL2 131903Z 12006KT 36/19 A2997 RMK A01 T03630190  RH  036%=      5-min Rain = 0
KCL2 131904Z 11005KT 36/19 A2997 RMK A01 T03630189  RH  036%=      5-min Rain = 0
KCL2 131905Z 12003KT 36/19 A2997 RMK A01 T03610188  RH  036%=      5-min Rain = 0
KCL2 131906Z 13004KT 36/19 A2997 RMK A01 T03600188  RH  036%=      5-min Rain = 0
KCL2 131907Z 16004KT 36/19 A2997 RMK A01 T03620190  RH  037%=      5-min Rain = 0
KCL2 131908Z 17006KT 36/19 A2997 RMK A01 T03640193  RH  037%=      5-min Rain = 0
KCL2 131909Z 16005KT 37/19 A2997 RMK A01 T03680193  RH  036%=      5-min Rain = 0
KCL2 131910Z 14003KT 37/19 A2997 RMK A01 T03710194  RH  036%=      5-min Rain = 0
KCL2 131911Z 14007KT 37/19 A2997 RMK A01 T03730191  RH  035%=      5-min Rain = 0
KCL2 131912Z 08004KT 37/19 A2997 RMK A01 T03680189  RH  035%=      5-min Rain = 0
KCL2 131913Z 02002KT 36/19 A2997 RMK A01 T03630187  RH  036%=      5-min Rain = 0
KCL2 131914Z 01002KT 36/19 A2997 RMK A01 T03600188  RH  037%=      5-min Rain = 0
KCL2 131915Z 36001KT 36/19 A2997 RMK A01 T03600189  RH  037%=      5-min Rain = 0
KCL2 131916Z 01001KT 36/19 A2997 RMK A01 T03600188  RH  036%=      5-min Rain = 0
KCL2 131917Z 08001KT 36/19 A2997 RMK A01 T03610187  RH  036%=      5-min Rain = 0
KCL2 131918Z 08003KT 36/19 A2996 RMK A01 T03610187  RH  036%=      5-min Rain = 0
KCL2 131919Z 21003KT 36/19 A2996 RMK A01 T03610188  RH  036%=      5-min Rain = 0
KCL2 131920Z 24004KT 36/18 A2996 RMK A01 T03620183  RH  035%=      5-min Rain = 0
KCL2 131921Z 28001KT 36/18 A2996 RMK A01 T03620183  RH  035%=      5-min Rain = 0
KCL2 131922Z 30001KT 36/18 A2996 RMK A01 T03610184  RH  035%=      5-min Rain = 0
KCL2 131923Z 29002KT 36/19 A2996 RMK A01 T03620186  RH  036%=      5-min Rain = 0
KCL2 131924Z 29001KT 36/19 A2996 RMK A01 T03630187  RH  036%=      5-min Rain = 0
KCL2 131925Z 00000KT 36/19 A2996 RMK A01 T03630186  RH  035%=      5-min Rain = 0
KCL2 131926Z 17000KT 36/19 A2996 RMK A01 T03630187  RH  036%=      5-min Rain = 0
KCL2 131927Z 12002KT 36/19 A2996 RMK A01 T03640187  RH  035%=      5-min Rain = 0
KCL2 131928Z 23000KT 37/19 A2996 RMK A01 T03650186  RH  035%=      5-min Rain = 0
KCL2 131929Z 16006G12KT 37/19 A2996 RMK A01 T03680193  RH  036%=      5-min Rain = 0
KCL2 131930Z 10014G21KT 38/19 A2996 RMK A01 T03750192  RH  034%=      5-min Rain = 0
KCL2 131931Z 07005KT 38/19 A2996 RMK A01 T03760191  RH  034%=      5-min Rain = 0
KCL2 131932Z 14004KT 37/19 A2997 RMK A01 T03740189  RH  034%=      5-min Rain = 0
KCL2 131933Z 21002KT 37/19 A2996 RMK A01 T03740188  RH  034%=      5-min Rain = 0
KCL2 131934Z 13004KT 37/19 A2996 RMK A01 T03740190  RH  034%=      5-min Rain = 0
KCL2 131935Z 13005KT 38/19 A2996 RMK A01 T03770185  RH  033%=      5-min Rain = 0
KCL2 131936Z 15003KT 38/19 A2996 RMK A01 T03750185  RH  033%=      5-min Rain = 0
KCL2 131937Z 13001KT 38/19 A2996 RMK A01 T03750187  RH  034%=      5-min Rain = 0
KCL2 131938Z 14005KT 38/19 A2996 RMK A01 T03750187  RH  033%=      5-min Rain = 0
KCL2 131939Z 10005KT 38/19 A2996 RMK A01 T03760187  RH  033%=      5-min Rain = 0
KCL2 131940Z 07006KT 38/19 A2996 RMK A01 T03760186  RH  033%=      5-min Rain = 0
KCL2 131941Z 07006KT 38/19 A2996 RMK A01 T03750187  RH  033%=      5-min Rain = 0
KCL2 131942Z 07004KT 38/19 A2996 RMK A01 T03760186  RH  033%=      5-min Rain = 0
KCL2 131943Z 08006KT 38/19 A2996 RMK A01 T03760185  RH  033%=      5-min Rain = 0
KCL2 131944Z 07002KT 37/18 A2996 RMK A01 T03730184  RH  033%=      5-min Rain = 0
KCL2 131945Z 16001KT 37/19 A2996 RMK A01 T03700185  RH  034%=      5-min Rain = 0
KCL2 131946Z 13003KT 37/19 A2996 RMK A01 T03710188  RH  034%=      5-min Rain = 0
KCL2 131947Z 13007KT 38/19 A2996 RMK A01 T03760190  RH  034%=      5-min Rain = 0
KCL2 131948Z 13009KT 38/19 A2996 RMK A01 T03800190  RH  033%=      5-min Rain = 0
KCL2 131949Z 12008KT 38/19 A2996 RMK A01 T03800190  RH  033%=      5-min Rain = 0
KCL2 131950Z 16008KT 38/19 A2996 RMK A01 T03770189  RH  034%=      5-min Rain = 0
KCL2 131951Z 16005KT 38/19 A2996 RMK A01 T03750185  RH  033%=      5-min Rain = 0
KCL2 131952Z 18002KT 37/19 A2996 RMK A01 T03730189  RH  034%=      5-min Rain = 0
KCL2 131953Z 20003KT 37/19 A2996 RMK A01 T03740188  RH  034%=      5-min Rain = 0
KCL2 131954Z 17005KT 38/19 A2996 RMK A01 T03760190  RH  034%=      5-min Rain = 0
KCL2 131955Z 16009KT 38/19 A2996 RMK A01 T03770190  RH  034%=      5-min Rain = 0
KCL2 131956Z 15008KT 38/19 A2996 RMK A01 T03780187  RH  033%=      5-min Rain = 0
KCL2 131957Z 14007KT 38/19 A2996 RMK A01 T03760185  RH  033%=      5-min Rain = 0
KCL2 131958Z 14008KT 38/19 A2996 RMK A01 T03760185  RH  033%=      5-min Rain = 0
KCL2 131959Z 13007KT 38/18 A2996 RMK A01 T03760181  RH  032%=      5-min Rain = 0
KCL2 132000Z 12005KT 38/18 A2996 RMK A01 T03750181  RH  032%=      5-min Rain = 0
KCL2 132001Z 14004KT 37/18 A2996 RMK A01 T03740181  RH  032%=      5-min Rain = 0
KCL2 132002Z 11007KT 37/18 A2996 RMK A01 T03710181  RH  033%=      5-min Rain = 0
KCL2 132003Z 13005KT 37/18 A2996 RMK A01 T03700182  RH  033%=      5-min Rain = 0
KCL2 132004Z 12005KT 37/18 A2996 RMK A01 T03720181  RH  033%=      5-min Rain = 0
KCL2 132005Z 11006KT 38/18 A2996 RMK A01 T03750182  RH  032%=      5-min Rain = 0
KCL2 132006Z 13009KT 38/18 A2996 RMK A01 T03760182  RH  032%=      5-min Rain = 0
KCL2 132007Z 12008KT 38/18 A2996 RMK A01 T03760181  RH  032%=      5-min Rain = 0
KCL2 132008Z 12005KT 38/18 A2996 RMK A01 T03750180  RH  032%=      5-min Rain = 0
KCL2 132009Z 11001KT 37/18 A2996 RMK A01 T03730179  RH  032%=      5-min Rain = 0
KCL2 132010Z 08001KT 37/18 A2996 RMK A01 T03730179  RH  032%=      5-min Rain = 0
KCL2 132011Z 09001KT 37/18 A2995 RMK A01 T03730179  RH  032%=      5-min Rain = 0
KCL2 132012Z 14001KT 37/18 A2995 RMK A01 T03730179  RH  032%=      5-min Rain = 0
KCL2 132013Z 15003KT 37/18 A2995 RMK A01 T03730180  RH  032%=      5-min Rain = 0
KCL2 132014Z 10003KT 37/18 A2995 RMK A01 T03730179  RH  032%=      5-min Rain = 0
KCL2 132015Z 11002KT 37/18 A2995 RMK A01 T03720175  RH  031%=      5-min Rain = 0
KCL2 132016Z 20001KT 37/18 A2995 RMK A01 T03710177  RH  032%=      5-min Rain = 0
KCL2 132017Z 08002KT 37/18 A2995 RMK A01 T03740177  RH  031%=      5-min Rain = 0
KCL2 132018Z 07002KT 38/18 A2995 RMK A01 T03760175  RH  031%=      5-min Rain = 0
KCL2 132019Z 08002KT 38/18 A2995 RMK A01 T03750177  RH  031%=      5-min Rain = 0
KCL2 132020Z 09003KT 37/18 A2995 RMK A01 T03740175  RH  031%=      5-min Rain = 0
KCL2 132021Z 10006KT 37/18 A2995 RMK A01 T03710178  RH  032%=      5-min Rain = 0
KCL2 132022Z 10007KT 37/18 A2995 RMK A01 T03690177  RH  033%=      5-min Rain = 0
KCL2 132023Z 09005KT 37/18 A2995 RMK A01 T03660177  RH  033%=      5-min Rain = 0
KCL2 132024Z 08007KT 37/18 A2995 RMK A01 T03660178  RH  033%=      5-min Rain = 0
KCL2 132025Z 08004KT 37/18 A2995 RMK A01 T03670176  RH  033%=      5-min Rain = 0
KCL2 132026Z 08007KT 37/18 A2995 RMK A01 T03670178  RH  033%=      5-min Rain = 0
KCL2 132027Z 09008KT 37/18 A2995 RMK A01 T03680176  RH  032%=      5-min Rain = 0
KCL2 132028Z 11007KT 37/18 A2995 RMK A01 T03690177  RH  032%=      5-min Rain = 0
KCL2 132029Z 09006KT 37/18 A2995 RMK A01 T03690176  RH  032%=      5-min Rain = 0
KCL2 132030Z 09007KT 37/18 A2995 RMK A01 T03700177  RH  032%=      5-min Rain = 0
KCL2 132031Z 08007KT 37/18 A2994 RMK A01 T03720178  RH  032%=      5-min Rain = 0
KCL2 132032Z 07008KT 38/18 A2995 RMK A01 T03760180  RH  032%=      5-min Rain = 0
KCL2 132033Z 08007KT 38/18 A2994 RMK A01 T03780179  RH  031%=      5-min Rain = 0
KCL2 132034Z 10006KT 38/18 A2994 RMK A01 T03770179  RH  031%=      5-min Rain = 0
KCL2 132035Z 11005KT 38/18 A2994 RMK A01 T03780179  RH  031%=      5-min Rain = 0
KCL2 132036Z 13006KT 38/18 A2994 RMK A01 T03800180  RH  031%=      5-min Rain = 0
KCL2 132037Z 13005KT 38/18 A2994 RMK A01 T03840179  RH  030%=      5-min Rain = 0
KCL2 132038Z 12008KT 39/18 A2994 RMK A01 T03880180  RH  030%=      5-min Rain = 0
KCL2 132039Z 08008KT 39/18 A2994 RMK A01 T03880181  RH  030%=      5-min Rain = 0
KCL2 132040Z 08007KT 39/18 A2994 RMK A01 T03870180  RH  030%=      5-min Rain = 0
KCL2 132041Z 10012G18KT 39/18 A2994 RMK A01 T03860179  RH  030%=      5-min Rain = 0
KCL2 132042Z 10011KT 39/18 A2994 RMK A01 T03860178  RH  030%=      5-min Rain = 0
KCL2 132043Z 10010G15KT 39/18 A2994 RMK A01 T03850178  RH  030%=      5-min Rain = 0
KCL2 132044Z 09012KT 39/18 A2994 RMK A01 T03850176  RH  029%=      5-min Rain = 0
KCL2 132045Z 09012KT 38/18 A2994 RMK A01 T03820176  RH  030%=      5-min Rain = 0
KCL2 132046Z 10011KT 38/18 A2994 RMK A01 T03820175  RH  030%=      5-min Rain = 0
KCL2 132047Z 11007KT 38/18 A2994 RMK A01 T03830175  RH  030%=      5-min Rain = 0
KCL2 132048Z 09009KT 38/18 A2994 RMK A01 T03830175  RH  030%=      5-min Rain = 0
KCL2 132049Z 08010KT 38/17 A2994 RMK A01 T03830174  RH  029%=      5-min Rain = 0
KCL2 132050Z 09008KT 38/17 A2994 RMK A01 T03810174  RH  030%=      5-min Rain = 0
KCL2 132051Z 08006KT 38/17 A2994 RMK A01 T03770171  RH  030%=      5-min Rain = 0
KCL2 132052Z 11006KT 37/17 A2994 RMK A01 T03740173  RH  031%=      5-min Rain = 0
KCL2 132053Z 09008KT 38/18 A2994 RMK A01 T03770176  RH  031%=      5-min Rain = 0
KCL2 132054Z 10010KT 38/18 A2994 RMK A01 T03810175  RH  030%=      5-min Rain = 0
KCL2 132055Z 10007KT 38/18 A2994 RMK A01 T03820175  RH  030%=      5-min Rain = 0
KCL2 132056Z 09004KT 38/17 A2994 RMK A01 T03820174  RH  030%=      5-min Rain = 0
KCL2 132057Z 06006KT 38/18 A2994 RMK A01 T03810177  RH  030%=      5-min Rain = 0
KCL2 132058Z 07009KT 38/18 A2994 RMK A01 T03830175  RH  030%=      5-min Rain = 0
KCL2 132059Z 06009KT 38/18 A2994 RMK A01 T03830175  RH  030%=      5-min Rain = 0
KCL2 132100Z 05008KT 38/17 A2994 RMK A01 T03820174  RH  030%=      5-min Rain = 0
KCL2 132101Z 06005KT 38/17 A2994 RMK A01 T03800173  RH  030%=      5-min Rain = 0
KCL2 132102Z 06005KT 38/17 A2994 RMK A01 T03790173  RH  030%=      5-min Rain = 0
KCL2 132103Z 05006KT 38/17 A2994 RMK A01 T03780174  RH  030%=      5-min Rain = 0
KCL2 132104Z 06003KT 38/17 A2994 RMK A01 T03790172  RH  030%=      5-min Rain = 0
KCL2 132105Z 03002KT 38/17 A2994 RMK A01 T03770172  RH  030%=      5-min Rain = 0
KCL2 132106Z 09004KT 38/17 A2994 RMK A01 T03770174  RH  030%=      5-min Rain = 0
KCL2 132107Z 11008KT 38/18 A2994 RMK A01 T03800177  RH  031%=      5-min Rain = 0
KCL2 132108Z 12009KT 39/18 A2994 RMK A01 T03860177  RH  030%=      5-min Rain = 0
KCL2 132109Z 13009KT 39/18 A2994 RMK A01 T03890176  RH  029%=      5-min Rain = 0
KCL2 132110Z 12008KT 39/17 A2994 RMK A01 T03880174  RH  029%=      5-min Rain = 0
KCL2 132111Z 13009G14KT 38/17 A2994 RMK A01 T03830173  RH  029%=      5-min Rain = 0
KCL2 132112Z 13010KT 38/17 A2994 RMK A01 T03790173  RH  030%=      5-min Rain = 0
KCL2 132113Z 14009KT 38/17 A2993 RMK A01 T03770173  RH  030%=      5-min Rain = 0
KCL2 132114Z 14011KT 38/17 A2994 RMK A01 T03750173  RH  031%=      5-min Rain = 0
KCL2 132115Z 13009KT 37/17 A2993 RMK A01 T03730173  RH  031%=      5-min Rain = 0
KCL2 132116Z 10007KT 37/17 A2994 RMK A01 T03720173  RH  031%=      5-min Rain = 0
KCL2 132117Z 11008KT 37/17 A2993 RMK A01 T03720173  RH  031%=      5-min Rain = 0
KCL2 132118Z 13013KT 37/17 A2993 RMK A01 T03710174  RH  031%=      5-min Rain = 0
KCL2 132119Z 13012KT 37/17 A2994 RMK A01 T03710173  RH  031%=      5-min Rain = 0
KCL2 132120Z 12009KT 37/17 A2994 RMK A01 T03710171  RH  031%=      5-min Rain = 0
KCL2 132121Z 13007KT 37/17 A2994 RMK A01 T03700174  RH  032%=      5-min Rain = 0
KCL2 132122Z 12010KT 37/17 A2994 RMK A01 T03700174  RH  032%=      5-min Rain = 0
KCL2 132123Z 12009KT 37/17 A2994 RMK A01 T03700171  RH  031%=      5-min Rain = 0
KCL2 132124Z 13006KT 37/17 A2994 RMK A01 T03680172  RH  031%=      5-min Rain = 0
KCL2 132125Z 13006KT 37/17 A2994 RMK A01 T03690173  RH  032%=      5-min Rain = 0
KCL2 132126Z 12007KT 37/17 A2993 RMK A01 T03690171  RH  031%=      5-min Rain = 0
KCL2 132127Z 13008KT 37/17 A2993 RMK A01 T03690172  RH  031%=      5-min Rain = 0
KCL2 132128Z 13009KT 37/17 A2993 RMK A01 T03680173  RH  032%=      5-min Rain = 0
KCL2 132129Z 13010KT 37/17 A2993 RMK A01 T03680172  RH  032%=      5-min Rain = 0
KCL2 132130Z 13008KT 37/17 A2993 RMK A01 T03690173  RH  032%=      5-min Rain = 0
KCL2 132131Z 12008KT 37/17 A2993 RMK A01 T03690173  RH  031%=      5-min Rain = 0
KCL2 132132Z 12011KT 37/17 A2993 RMK A01 T03690171  RH  031%=      5-min Rain = 0
KCL2 132133Z 12009KT 37/17 A2993 RMK A01 T03700172  RH  031%=      5-min Rain = 0
KCL2 132134Z 12009KT 37/17 A2993 RMK A01 T03730172  RH  031%=      5-min Rain = 0
KCL2 132135Z 12009KT 38/17 A2993 RMK A01 T03770174  RH  031%=      5-min Rain = 0
KCL2 132136Z 13011KT 38/17 A2993 RMK A01 T03790174  RH  030%=      5-min Rain = 0
KCL2 132137Z 13013KT 38/17 A2993 RMK A01 T03770174  RH  030%=      5-min Rain = 0
KCL2 132138Z 13011KT 38/17 A2993 RMK A01 T03760173  RH  030%=      5-min Rain = 0
KCL2 132139Z 13010KT 38/17 A2993 RMK A01 T03750174  RH  031%=      5-min Rain = 0
KCL2 132140Z 12010KT 38/17 A2993 RMK A01 T03750174  RH  031%=      5-min Rain = 0
KCL2 132141Z 13011KT 38/17 A2993 RMK A01 T03750174  RH  031%=      5-min Rain = 0
KCL2 132142Z 13010KT 38/17 A2993 RMK A01 T03750173  RH  031%=      5-min Rain = 0
KCL2 132143Z 12009KT 37/17 A2993 RMK A01 T03740174  RH  031%=      5-min Rain = 0
KCL2 132144Z 13010KT 38/18 A2993 RMK A01 T03760175  RH  031%=      5-min Rain = 0
KCL2 132145Z 13010KT 38/17 A2993 RMK A01 T03750173  RH  031%=      5-min Rain = 0
KCL2 132146Z 14012KT 37/17 A2993 RMK A01 T03740173  RH  031%=      5-min Rain = 0
KCL2 132147Z 13010KT 37/17 A2993 RMK A01 T03720173  RH  031%=      5-min Rain = 0
KCL2 132148Z 13008KT 37/17 A2993 RMK A01 T03710171  RH  031%=      5-min Rain = 0
KCL2 132149Z 12008KT 37/17 A2993 RMK A01 T03730174  RH  031%=      5-min Rain = 0
KCL2 132150Z 14008KT 38/17 A2993 RMK A01 T03750172  RH  030%=      5-min Rain = 0
KCL2 132151Z 13009KT 38/18 A2993 RMK A01 T03770175  RH  031%=      5-min Rain = 0
KCL2 132152Z 13008KT 38/17 A2993 RMK A01 T03790173  RH  030%=      5-min Rain = 0
KCL2 132153Z 13008KT 38/17 A2993 RMK A01 T03800174  RH  030%=      5-min Rain = 0
KCL2 132154Z 13007KT 38/17 A2993 RMK A01 T03820171  RH  029%=      5-min Rain = 0
KCL2 132155Z 11005KT 38/17 A2993 RMK A01 T03800172  RH  030%=      5-min Rain = 0
KCL2 132156Z 11006KT 38/17 A2993 RMK A01 T03780173  RH  030%=      5-min Rain = 0
KCL2 132157Z 10007KT 37/17 A2993 RMK A01 T03740173  RH  031%=      5-min Rain = 0
KCL2 132158Z 09007KT 37/17 A2993 RMK A01 T03720174  RH  031%=      5-min Rain = 0
KCL2 132159Z 08006KT 37/18 A2993 RMK A01 T03720175  RH  031%=      5-min Rain = 0
KCL2 132200Z 09008KT 37/17 A2993 RMK A01 T03740173  RH  031%=      5-min Rain = 0
KCL2 132201Z 12006KT 38/18 A2993 RMK A01 T03770178  RH  031%=      5-min Rain = 0
KCL2 132202Z 12007KT 38/18 A2993 RMK A01 T03790177  RH  031%=      5-min Rain = 0
KCL2 132203Z 09007KT 38/18 A2993 RMK A01 T03810178  RH  031%=      5-min Rain = 0
KCL2 132204Z 07009KT 38/17 A2993 RMK A01 T03790172  RH  030%=      5-min Rain = 0
KCL2 132205Z 09007KT 37/17 A2993 RMK A01 T03740171  RH  030%=      5-min Rain = 0
KCL2 132206Z 09008KT 37/17 A2993 RMK A01 T03710172  RH  031%=      5-min Rain = 0
KCL2 132207Z 11009KT 37/17 A2993 RMK A01 T03700173  RH  032%=      5-min Rain = 0
KCL2 132208Z 12009KT 37/17 A2993 RMK A01 T03700174  RH  031%=      5-min Rain = 0
KCL2 132209Z 13009KT 37/17 A2993 RMK A01 T03710171  RH  031%=      5-min Rain = 0
KCL2 132210Z 13010KT 37/17 A2992 RMK A01 T03700172  RH  031%=      5-min Rain = 0
KCL2 132211Z 12009KT 37/17 A2993 RMK A01 T03690172  RH  032%=      5-min Rain = 0
KCL2 132212Z 11006KT 37/17 A2992 RMK A01 T03680170  RH  031%=      5-min Rain = 0
KCL2 132213Z 11006KT 37/17 A2992 RMK A01 T03680172  RH  031%=      5-min Rain = 0
KCL2 132214Z 11008KT 37/17 A2993 RMK A01 T03710173  RH  031%=      5-min Rain = 0
KCL2 132215Z 12008KT 37/17 A2993 RMK A01 T03730172  RH  031%=      5-min Rain = 0
KCL2 132216Z 11009KT 37/17 A2993 RMK A01 T03730172  RH  031%=      5-min Rain = 0
KCL2 132217Z 12008KT 37/17 A2993 RMK A01 T03730172  RH  031%=      5-min Rain = 0
KCL2 132218Z 11009KT 37/17 A2993 RMK A01 T03730172  RH  031%=      5-min Rain = 0
KCL2 132219Z 11005KT 37/17 A2993 RMK A01 T03710172  RH  031%=      5-min Rain = 0
KCL2 132220Z 10002KT 37/17 A2992 RMK A01 T03700171  RH  031%=      5-min Rain = 0
KCL2 132221Z 07004KT 37/17 A2992 RMK A01 T03690171  RH  031%=      5-min Rain = 0
KCL2 132222Z 13003KT 37/17 A2992 RMK A01 T03690170  RH  031%=      5-min Rain = 0
KCL2 132223Z 11003KT 37/17 A2992 RMK A01 T03690172  RH  031%=      5-min Rain = 0
KCL2 132224Z 14006KT 37/17 A2992 RMK A01 T03710173  RH  031%=      5-min Rain = 0
KCL2 132225Z 12007KT 37/17 A2992 RMK A01 T03730173  RH  031%=      5-min Rain = 0
KCL2 132226Z 10005KT 37/18 A2992 RMK A01 T03730175  RH  031%=      5-min Rain = 0
KCL2 132227Z 12008KT 37/17 A2992 RMK A01 T03740174  RH  031%=      5-min Rain = 0
KCL2 132228Z 12009KT 37/17 A2992 RMK A01 T03740174  RH  031%=      5-min Rain = 0
KCL2 132229Z 11007KT 37/17 A2992 RMK A01 T03740174  RH  031%=      5-min Rain = 0
KCL2 132230Z 10007KT 38/18 A2992 RMK A01 T03760175  RH  031%=      5-min Rain = 0
KCL2 132231Z 11009KT 38/17 A2992 RMK A01 T03760173  RH  030%=      5-min Rain = 0
KCL2 132232Z 10005KT 37/17 A2992 RMK A01 T03740172  RH  031%=      5-min Rain = 0
KCL2 132233Z 09008KT 37/17 A2992 RMK A01 T03740174  RH  031%=      5-min Rain = 0
KCL2 132234Z 10008KT 38/18 A2992 RMK A01 T03760175  RH  031%=      5-min Rain = 0
KCL2 132235Z 13008KT 38/18 A2992 RMK A01 T03780176  RH  031%=      5-min Rain = 0
KCL2 132236Z 13007KT 38/18 A2992 RMK A01 T03790175  RH  030%=      5-min Rain = 0
KCL2 132237Z 12006KT 38/17 A2992 RMK A01 T03790171  RH  030%=      5-min Rain = 0
KCL2 132238Z 13005KT 38/17 A2992 RMK A01 T03760172  RH  030%=      5-min Rain = 0
KCL2 132239Z 12004KT 37/17 A2992 RMK A01 T03740173  RH  031%=      5-min Rain = 0
KCL2 132240Z 13004KT 38/17 A2992 RMK A01 T03750173  RH  031%=      5-min Rain = 0
KCL2 132241Z 14006KT 38/17 A2992 RMK A01 T03760174  RH  031%=      5-min Rain = 0
KCL2 132242Z 13010KT 38/18 A2992 RMK A01 T03790175  RH  030%=      5-min Rain = 0
KCL2 132243Z 13010KT 38/17 A2992 RMK A01 T03800173  RH  030%=      5-min Rain = 0
KCL2 132244Z 13008KT 38/17 A2992 RMK A01 T03790172  RH  030%=      5-min Rain = 0
KCL2 132245Z 13007KT 38/17 A2992 RMK A01 T03780173  RH  030%=      5-min Rain = 0
KCL2 132246Z 14007KT 38/17 A2992 RMK A01 T03770172  RH  030%=      5-min Rain = 0
KCL2 132247Z 13007KT 38/17 A2992 RMK A01 T03750171  RH  030%=      5-min Rain = 0
KCL2 132248Z 13008KT 37/17 A2992 RMK A01 T03740174  RH  031%=      5-min Rain = 0
KCL2 132249Z 13007KT 38/17 A2992 RMK A01 T03750172  RH  030%=      5-min Rain = 0
KCL2 132250Z 13008KT 37/17 A2992 RMK A01 T03740171  RH  030%=      5-min Rain = 0
KCL2 132251Z 13008KT 37/17 A2992 RMK A01 T03720172  RH  031%=      5-min Rain = 0
KCL2 132252Z 11008KT 37/17 A2992 RMK A01 T03710173  RH  031%=      5-min Rain = 0
KCL2 132253Z 13008KT 37/17 A2992 RMK A01 T03700173  RH  031%=      5-min Rain = 0
KCL2 132254Z 12006KT 37/17 A2992 RMK A01 T03700171  RH  031%=      5-min Rain = 0
KCL2 132255Z 12005KT 37/17 A2992 RMK A01 T03690171  RH  031%=      5-min Rain = 0
KCL2 132256Z 13005KT 37/17 A2992 RMK A01 T03680171  RH  031%=      5-min Rain = 0
KCL2 132257Z 13005KT 37/17 A2992 RMK A01 T03680171  RH  031%=      5-min Rain = 0
KCL2 132258Z 12003KT 37/17 A2992 RMK A01 T03680170  RH  031%=      5-min Rain = 0
KCL2 132259Z 09004KT 37/17 A2992 RMK A01 T03680171  RH  031%=      5-min Rain = 0
KCL2 132300Z 09005KT 37/17 A2992 RMK A01 T03680172  RH  032%=      5-min Rain = 0
KCL2 132301Z 13007KT 37/18 A2992 RMK A01 T03690175  RH  032%=      5-min Rain = 0
KCL2 132302Z 12008KT 37/17 A2992 RMK A01 T03690173  RH  032%=      5-min Rain = 0
KCL2 132303Z 11006KT 37/17 A2992 RMK A01 T03680172  RH  031%=      5-min Rain = 0
KCL2 132304Z 09006KT 37/17 A2992 RMK A01 T03670173  RH  032%=      5-min Rain = 0
KCL2 132305Z 09006KT 37/17 A2992 RMK A01 T03680174  RH  032%=      5-min Rain = 0
KCL2 132306Z 08005KT 37/17 A2992 RMK A01 T03680172  RH  032%=      5-min Rain = 0
KCL2 132307Z 05005KT 37/17 A2992 RMK A01 T03690174  RH  032%=      5-min Rain = 0
KCL2 132308Z 03005KT 37/19 A2992 RMK A01 T03690187  RH  035%=      5-min Rain = 0
KCL2 132309Z 03005KT 37/21 A2992 RMK A01 T03650212  RH  041%=      5-min Rain = 0
KCL2 132310Z 06011KT 36/21 A2992 RMK A01 T03610213  RH  043%=      5-min Rain = 0
KCL2 132311Z 04012KT 36/22 A2992 RMK A01 T03560222  RH  046%=      5-min Rain = 0
KCL2 132312Z 04013KT 35/22 A2992 RMK A01 T03500223  RH  048%=      5-min Rain = 0
KCL2 132313Z 04012KT 35/22 A2992 RMK A01 T03470224  RH  049%=      5-min Rain = 0
KCL2 132314Z 05010KT 35/22 A2992 RMK A01 T03450224  RH  049%=      5-min Rain = 0
KCL2 132315Z 05013KT 35/22 A2992 RMK A01 T03450223  RH  049%=      5-min Rain = 0
KCL2 132316Z 03013KT 35/22 A2992 RMK A01 T03450223  RH  049%=      5-min Rain = 0
KCL2 132317Z 03014G19KT 34/22 A2992 RMK A01 T03440223  RH  049%=      5-min Rain = 0
KCL2 132318Z 03016KT 34/22 A2992 RMK A01 T03430221  RH  049%=      5-min Rain = 0
KCL2 132319Z 03015KT 34/22 A2992 RMK A01 T03420221  RH  049%=      5-min Rain = 0
KCL2 132320Z 03015KT 34/22 A2992 RMK A01 T03420222  RH  050%=      5-min Rain = 0
KCL2 132321Z 03013KT 34/22 A2993 RMK A01 T03410222  RH  050%=      5-min Rain = 0
KCL2 132322Z 02012KT 34/22 A2993 RMK A01 T03410223  RH  050%=      5-min Rain = 0
KCL2 132323Z 02013KT 34/22 A2993 RMK A01 T03410222  RH  050%=      5-min Rain = 0
KCL2 132324Z 03011KT 34/22 A2992 RMK A01 T03420222  RH  050%=      5-min Rain = 0
KCL2 132325Z 04011KT 34/22 A2992 RMK A01 T03420223  RH  050%=      5-min Rain = 0
KCL2 132326Z 04010KT 34/22 A2992 RMK A01 T03420223  RH  050%=      5-min Rain = 0
KCL2 132327Z 03012KT 34/22 A2992 RMK A01 T03420223  RH  050%=      5-min Rain = 0
KCL2 132328Z 04014KT 34/22 A2992 RMK A01 T03420223  RH  050%=      5-min Rain = 0
KCL2 132329Z 04012KT 34/22 A2992 RMK A01 T03420224  RH  050%=      5-min Rain = 0
KCL2 132330Z 05011KT 34/22 A2992 RMK A01 T03420224  RH  050%=      5-min Rain = 0
KCL2 132331Z 04013KT 34/22 A2993 RMK A01 T03420222  RH  050%=      5-min Rain = 0
KCL2 132332Z 05012KT 34/22 A2993 RMK A01 T03420223  RH  050%=      5-min Rain = 0
KCL2 132333Z 05014KT 34/22 A2993 RMK A01 T03420222  RH  050%=      5-min Rain = 0
KCL2 132334Z 05013KT 34/22 A2993 RMK A01 T03420222  RH  049%=      5-min Rain = 0
KCL2 132335Z 05012KT 34/22 A2993 RMK A01 T03420222  RH  050%=      5-min Rain = 0
KCL2 132336Z 06011KT 34/22 A2993 RMK A01 T03420222  RH  050%=      5-min Rain = 0
KCL2 132337Z 05009KT 34/22 A2993 RMK A01 T03420222  RH  050%=      5-min Rain = 0
KCL2 132338Z 05011KT 34/22 A2993 RMK A01 T03420223  RH  050%=      5-min Rain = 0
KCL2 132339Z 04009KT 34/22 A2993 RMK A01 T03410222  RH  050%=      5-min Rain = 0
KCL2 132340Z 05012KT 34/22 A2993 RMK A01 T03410222  RH  050%=      5-min Rain = 0
KCL2 132341Z 05011KT 34/22 A2993 RMK A01 T03410222  RH  050%=      5-min Rain = 0
KCL2 132342Z 05011KT 34/22 A2993 RMK A01 T03410222  RH  050%=      5-min Rain = 0
KCL2 132343Z 05009KT 34/22 A2993 RMK A01 T03410222  RH  050%=      5-min Rain = 0
KCL2 132344Z 05012KT 34/22 A2993 RMK A01 T03410222  RH  050%=      5-min Rain = 0
KCL2 132345Z 05013KT 34/22 A2993 RMK A01 T03420221  RH  049%=      5-min Rain = 0
KCL2 132346Z 06014KT 34/22 A2993 RMK A01 T03420221  RH  049%=      5-min Rain = 0
KCL2 132347Z 05012KT 34/22 A2993 RMK A01 T03430221  RH  049%=      5-min Rain = 0
KCL2 132348Z 05013KT 34/22 A2993 RMK A01 T03440221  RH  049%=      5-min Rain = 0
KCL2 132349Z 05012KT 34/22 A2993 RMK A01 T03440220  RH  048%=      5-min Rain = 0
KCL2 132350Z 05012KT 35/22 A2993 RMK A01 T03450221  RH  048%=      5-min Rain = 0
KCL2 132351Z 05011KT 35/22 A2993 RMK A01 T03460220  RH  048%=      5-min Rain = 0
KCL2 132352Z 05009KT 35/22 A2993 RMK A01 T03480222  RH  048%=      5-min Rain = 0
KCL2 132353Z 04012KT 35/22 A2993 RMK A01 T03490220  RH  047%=      5-min Rain = 0
KCL2 132354Z 05010KT 35/22 A2993 RMK A01 T03490221  RH  047%=      5-min Rain = 0
KCL2 132355Z 04011KT 35/22 A2993 RMK A01 T03490220  RH  047%=      5-min Rain = 0
KCL2 132356Z 05012KT 35/22 A2993 RMK A01 T03500219  RH  047%=      5-min Rain = 0
KCL2 132357Z 05011KT 35/22 A2993 RMK A01 T03490218  RH  047%=      5-min Rain = 0
KCL2 132358Z 05010KT 35/22 A2993 RMK A01 T03490219  RH  047%=      5-min Rain = 0
KCL2 132359Z 05010KT 35/22 A2993 RMK A01 T03490218  RH  047%=      5-min Rain = 0
KCL2 140000Z 05010KT 35/22 A2993 RMK A01 T03490218  RH  047%=      5-min Rain = 0
KCL2 140001Z 06011KT 35/22 A2993 RMK A01 T03490217  RH  046%=      5-min Rain = 0
KCL2 140002Z 05011KT 35/22 A2993 RMK A01 T03490217  RH  046%=      5-min Rain = 0
KCL2 140003Z 05011KT 35/22 A2993 RMK A01 T03490217  RH  046%=      5-min Rain = 0
KCL2 140004Z 05010KT 35/22 A2993 RMK A01 T03490218  RH  047%=      5-min Rain = 0
KCL2 140005Z 05009KT 35/22 A2993 RMK A01 T03490218  RH  047%=      5-min Rain = 0
KCL2 140006Z 04010KT 35/22 A2993 RMK A01 T03480217  RH  047%=      5-min Rain = 0
KCL2 140007Z 04011KT 35/22 A2993 RMK A01 T03460216  RH  047%=      5-min Rain = 0
KCL2 140008Z 05012KT 35/22 A2993 RMK A01 T03460216  RH  047%=      5-min Rain = 0
KCL2 140009Z 05009KT 35/22 A2993 RMK A01 T03450217  RH  047%=      5-min Rain = 0
KCL2 140010Z 06010KT 35/22 A2993 RMK A01 T03450218  RH  048%=      5-min Rain = 0
KCL2 140011Z 07012KT 35/22 A2993 RMK A01 T03450216  RH  047%=      5-min Rain = 0
KCL2 140012Z 06014KT 35/22 A2993 RMK A01 T03450215  RH  047%=      5-min Rain = 0
KCL2 140013Z 06013KT 35/22 A2993 RMK A01 T03460216  RH  047%=      5-min Rain = 0
KCL2 140014Z 07011KT 35/22 A2993 RMK A01 T03460216  RH  047%=      5-min Rain = 0
KCL2 140015Z 06010KT 35/22 A2993 RMK A01 T03450216  RH  047%=      5-min Rain = 0
KCL2 140016Z 06010KT 35/22 A2993 RMK A01 T03450217  RH  047%=      5-min Rain = 0
KCL2 140017Z 05012KT 35/22 A2993 RMK A01 T03450217  RH  047%=      5-min Rain = 0
KCL2 140018Z 06011KT 35/22 A2993 RMK A01 T03450217  RH  047%=      5-min Rain = 0
KCL2 140019Z 06011KT 35/22 A2993 RMK A01 T03450217  RH  047%=      5-min Rain = 0
KCL2 140020Z 06010KT 35/22 A2993 RMK A01 T03450217  RH  047%=      5-min Rain = 0
KCL2 140021Z 06011KT 35/22 A2994 RMK A01 T03450217  RH  047%=      5-min Rain = 0
KCL2 140022Z 05010KT 35/22 A2994 RMK A01 T03450217  RH  047%=      5-min Rain = 0
KCL2 140023Z 05010KT 35/22 A2994 RMK A01 T03450216  RH  047%=      5-min Rain = 0
KCL2 140024Z 05010KT 34/22 A2994 RMK A01 T03440216  RH  047%=      5-min Rain = 0
KCL2 140025Z 05012KT 34/22 A2994 RMK A01 T03430215  RH  047%=      5-min Rain = 0
KCL2 140026Z 06011KT 34/22 A2994 RMK A01 T03430215  RH  047%=      5-min Rain = 0
KCL2 140027Z 05012KT 34/22 A2994 RMK A01 T03420215  RH  047%=      5-min Rain = 0
KCL2 140028Z 06010KT 34/21 A2994 RMK A01 T03420214  RH  047%=      5-min Rain = 0
KCL2 140029Z 06009KT 34/22 A2994 RMK A01 T03420215  RH  048%=      5-min Rain = 0
KCL2 140030Z 06009KT 34/22 A2994 RMK A01 T03430215  RH  048%=      5-min Rain = 0
KCL2 140031Z 05010KT 34/21 A2994 RMK A01 T03430214  RH  047%=      5-min Rain = 0
KCL2 140032Z 05010KT 34/22 A2994 RMK A01 T03440215  RH  047%=      5-min Rain = 0
KCL2 140033Z 06011KT 34/22 A2994 RMK A01 T03440215  RH  047%=      5-min Rain = 0
KCL2 140034Z 05010KT 34/22 A2994 RMK A01 T03440215  RH  047%=      5-min Rain = 0
KCL2 140035Z 06012KT 34/22 A2994 RMK A01 T03430215  RH  047%=      5-min Rain = 0
KCL2 140036Z 06010KT 34/21 A2994 RMK A01 T03420214  RH  047%=      5-min Rain = 0
KCL2 140037Z 06011KT 34/21 A2994 RMK A01 T03420212  RH  047%=      5-min Rain = 0
KCL2 140038Z 06011KT 34/21 A2994 RMK A01 T03420212  RH  047%=      5-min Rain = 0
KCL2 140039Z 06010KT 34/21 A2994 RMK A01 T03420212  RH  047%=      5-min Rain = 0
KCL2 140040Z 06010KT 34/21 A2994 RMK A01 T03420213  RH  047%=      5-min Rain = 0
KCL2 140041Z 06010KT 34/21 A2994 RMK A01 T03420212  RH  047%=      5-min Rain = 0
KCL2 140042Z 07011KT 34/21 A2994 RMK A01 T03420212  RH  047%=      5-min Rain = 0
KCL2 140043Z 06010KT 34/21 A2994 RMK A01 T03420212  RH  047%=      5-min Rain = 0
KCL2 140044Z 06010KT 34/21 A2994 RMK A01 T03420212  RH  047%=      5-min Rain = 0
KCL2 140045Z 06012KT 34/21 A2994 RMK A01 T03420211  RH  047%=      5-min Rain = 0
KCL2 140046Z 06009KT 34/21 A2994 RMK A01 T03410211  RH  047%=      5-min Rain = 0
KCL2 140047Z 06009KT 34/21 A2994 RMK A01 T03410212  RH  047%=      5-min Rain = 0
KCL2 140048Z 06009KT 34/21 A2994 RMK A01 T03410212  RH  047%=      5-min Rain = 0
KCL2 140049Z 07008KT 34/21 A2994 RMK A01 T03410212  RH  047%=      5-min Rain = 0
KCL2 140050Z 06009KT 34/21 A2994 RMK A01 T03410212  RH  047%=      5-min Rain = 0
KCL2 140051Z 06009KT 34/21 A2994 RMK A01 T03400212  RH  047%=      5-min Rain = 0
KCL2 140052Z 07008KT 34/21 A2994 RMK A01 T03400212  RH  047%=      5-min Rain = 0
KCL2 140053Z 07007KT 34/21 A2994 RMK A01 T03400212  RH  047%=      5-min Rain = 0
KCL2 140054Z 07008KT 34/21 A2994 RMK A01 T03400212  RH  047%=      5-min Rain = 0
KCL2 140055Z 07008KT 34/21 A2994 RMK A01 T03390211  RH  047%=      5-min Rain = 0
KCL2 140056Z 07007KT 34/21 A2994 RMK A01 T03390211  RH  047%=      5-min Rain = 0
KCL2 140057Z 08005KT 34/21 A2994 RMK A01 T03390211  RH  047%=      5-min Rain = 0
KCL2 140058Z 07006KT 34/21 A2994 RMK A01 T03390211  RH  047%=      5-min Rain = 0
KCL2 140059Z 07005KT 34/21 A2994 RMK A01 T03390210  RH  047%=      5-min Rain = 0
KCL2 140100Z 07006KT 34/21 A2994 RMK A01 T03380210  RH  047%=      5-min Rain = 0
KCL2 140101Z 07008KT 34/21 A2994 RMK A01 T03380209  RH  047%=      5-min Rain = 0
KCL2 140102Z 06008KT 34/21 A2994 RMK A01 T03370208  RH  047%=      5-min Rain = 0
KCL2 140103Z 07007KT 34/21 A2994 RMK A01 T03380208  RH  047%=      5-min Rain = 0
KCL2 140104Z 06008KT 34/21 A2994 RMK A01 T03370207  RH  047%=      5-min Rain = 0
KCL2 140105Z 06008KT 34/21 A2994 RMK A01 T03370207  RH  047%=      5-min Rain = 0
KCL2 140106Z 06007KT 34/21 A2994 RMK A01 T03360207  RH  047%=      5-min Rain = 0
KCL2 140107Z 06006KT 34/21 A2994 RMK A01 T03360207  RH  047%=      5-min Rain = 0
KCL2 140108Z 07007KT 34/21 A2994 RMK A01 T03350206  RH  047%=      5-min Rain = 0
KCL2 140109Z 07007KT 34/21 A2994 RMK A01 T03350206  RH  047%=      5-min Rain = 0
KCL2 140110Z 06007KT 34/21 A2994 RMK A01 T03350206  RH  047%=      5-min Rain = 0
KCL2 140111Z 07007KT 34/21 A2994 RMK A01 T03350206  RH  047%=      5-min Rain = 0
KCL2 140112Z 07007KT 34/21 A2994 RMK A01 T03350206  RH  047%=      5-min Rain = 0
KCL2 140113Z 06007KT 34/21 A2994 RMK A01 T03350206  RH  047%=      5-min Rain = 0
KCL2 140114Z 06007KT 34/21 A2994 RMK A01 T03350206  RH  047%=      5-min Rain = 0
KCL2 140115Z 07008KT 33/21 A2994 RMK A01 T03340205  RH  047%=      5-min Rain = 0
KCL2 140116Z 06007KT 33/21 A2994 RMK A01 T03330205  RH  047%=      5-min Rain = 0
KCL2 140117Z 06008KT 33/21 A2994 RMK A01 T03320205  RH  047%=      5-min Rain = 0
KCL2 140118Z 06009KT 33/21 A2994 RMK A01 T03320205  RH  047%=      5-min Rain = 0
KCL2 140119Z 06009KT 33/20 A2994 RMK A01 T03320204  RH  047%=      5-min Rain = 0
KCL2 140120Z 06009KT 33/20 A2994 RMK A01 T03320204  RH  047%=      5-min Rain = 0
KCL2 140121Z 06008KT 33/20 A2994 RMK A01 T03310204  RH  047%=      5-min Rain = 0
KCL2 140122Z 06009KT 33/20 A2994 RMK A01 T03300204  RH  048%=      5-min Rain = 0
KCL2 140123Z 06009KT 33/20 A2994 RMK A01 T03300204  RH  048%=      5-min Rain = 0
KCL2 140124Z 06009KT 33/20 A2994 RMK A01 T03290204  RH  048%=      5-min Rain = 0
KCL2 140125Z 06008KT 33/20 A2994 RMK A01 T03290204  RH  048%=      5-min Rain = 0
KCL2 140126Z 06009KT 33/20 A2994 RMK A01 T03280204  RH  048%=      5-min Rain = 0
KCL2 140127Z 06009KT 33/20 A2994 RMK A01 T03280203  RH  048%=      5-min Rain = 0
KCL2 140128Z 06009KT 33/20 A2994 RMK A01 T03280204  RH  048%=      5-min Rain = 0
KCL2 140129Z 06009KT 33/20 A2994 RMK A01 T03280204  RH  048%=      5-min Rain = 0
KCL2 140130Z 06009KT 33/20 A2994 RMK A01 T03270204  RH  048%=      5-min Rain = 0
KCL2 140131Z 06009KT 33/20 A2994 RMK A01 T03270204  RH  049%=      5-min Rain = 0
KCL2 140132Z 06008KT 33/20 A2994 RMK A01 T03260204  RH  049%=      5-min Rain = 0
KCL2 140133Z 06007KT 33/20 A2995 RMK A01 T03260204  RH  049%=      5-min Rain = 0
KCL2 140134Z 06008KT 33/21 A2995 RMK A01 T03250205  RH  049%=      5-min Rain = 0
KCL2 140135Z 07008KT 32/21 A2995 RMK A01 T03240205  RH  049%=      5-min Rain = 0
KCL2 140136Z 06007KT 32/20 A2995 RMK A01 T03240204  RH  049%=      5-min Rain = 0
KCL2 140137Z 06007KT 33/21 A2995 RMK A01 T03250205  RH  049%=      5-min Rain = 0
KCL2 140138Z 06008KT 32/21 A2995 RMK A01 T03240205  RH  049%=      5-min Rain = 0
KCL2 140139Z 06007KT 32/21 A2995 RMK A01 T03240205  RH  049%=      5-min Rain = 0
KCL2 140140Z 07007KT 32/21 A2995 RMK A01 T03240205  RH  050%=      5-min Rain = 0
KCL2 140141Z 07007KT 32/20 A2995 RMK A01 T03220204  RH  050%=      5-min Rain = 0
KCL2 140142Z 07006KT 32/20 A2995 RMK A01 T03220204  RH  050%=      5-min Rain = 0
KCL2 140143Z 07008KT 32/20 A2995 RMK A01 T03220204  RH  050%=      5-min Rain = 0
KCL2 140144Z 07007KT 32/20 A2995 RMK A01 T03220204  RH  050%=      5-min Rain = 0
KCL2 140145Z 07007KT 32/20 A2995 RMK A01 T03230204  RH  050%=      5-min Rain = 0
KCL2 140146Z 07006KT 32/20 A2995 RMK A01 T03220204  RH  050%=      5-min Rain = 0
KCL2 140147Z 08006KT 32/20 A2995 RMK A01 T03220204  RH  050%=      5-min Rain = 0
KCL2 140148Z 08006KT 32/21 A2995 RMK A01 T03210205  RH  050%=      5-min Rain = 0
KCL2 140149Z 07007KT 32/20 A2995 RMK A01 T03200204  RH  050%=      5-min Rain = 0
KCL2 140150Z 07007KT 32/20 A2995 RMK A01 T03200204  RH  050%=      5-min Rain = 0
KCL2 140151Z 07008KT 32/20 A2995 RMK A01 T03200204  RH  050%=      5-min Rain = 0
KCL2 140152Z 08007KT 32/20 A2995 RMK A01 T03190204  RH  051%=      5-min Rain = 0
KCL2 140153Z 08007KT 32/20 A2995 RMK A01 T03190204  RH  051%=      5-min Rain = 0
KCL2 140154Z 08006KT 32/20 A2995 RMK A01 T03190204  RH  051%=      5-min Rain = 0
KCL2 140155Z 07007KT 32/20 A2995 RMK A01 T03190204  RH  051%=      5-min Rain = 0
KCL2 140156Z 07008KT 32/20 A2995 RMK A01 T03180204  RH  051%=      5-min Rain = 0
KCL2 140157Z 07009KT 32/20 A2995 RMK A01 T03180204  RH  051%=      5-min Rain = 0
KCL2 140158Z 07008KT 32/20 A2995 RMK A01 T03190204  RH  051%=      5-min Rain = 0
KCL2 140159Z 07008KT 32/20 A2995 RMK A01 T03180204  RH  051%=      5-min Rain = 0
KCL2 140200Z 06008KT 32/20 A2995 RMK A01 T03180204  RH  051%=      5-min Rain = 0
KCL2 140201Z 07010KT 32/20 A2995 RMK A01 T03160204  RH  051%=      5-min Rain = 0
KCL2 140202Z 07008KT 32/20 A2995 RMK A01 T03160204  RH  052%=      5-min Rain = 0
KCL2 140203Z 07009KT 32/20 A2995 RMK A01 T03150204  RH  052%=      5-min Rain = 0
KCL2 140204Z 07010KT 32/20 A2995 RMK A01 T03150204  RH  052%=      5-min Rain = 0
KCL2 140205Z 07010KT 32/20 A2995 RMK A01 T03150204  RH  052%=      5-min Rain = 0
KCL2 140206Z 07009KT 32/21 A2995 RMK A01 T03150205  RH  052%=      5-min Rain = 0
KCL2 140207Z 07009KT 32/21 A2995 RMK A01 T03150205  RH  052%=      5-min Rain = 0
KCL2 140208Z 07010KT 32/21 A2996 RMK A01 T03150206  RH  052%=      5-min Rain = 0
KCL2 140209Z 06010KT 31/21 A2996 RMK A01 T03140206  RH  053%=      5-min Rain = 0
KCL2 140210Z 06009KT 31/21 A2996 RMK A01 T03140206  RH  053%=      5-min Rain = 0
KCL2 140211Z 06009KT 31/21 A2996 RMK A01 T03140206  RH  053%=      5-min Rain = 0
KCL2 140212Z 06009KT 31/21 A2996 RMK A01 T03130207  RH  053%=      5-min Rain = 0
KCL2 140213Z 07008KT 31/21 A2996 RMK A01 T03130207  RH  053%=      5-min Rain = 0
KCL2 140214Z 06009KT 31/21 A2996 RMK A01 T03120207  RH  054%=      5-min Rain = 0
KCL2 140215Z 06010KT 31/21 A2996 RMK A01 T03120207  RH  054%=      5-min Rain = 0
KCL2 140216Z 06010KT 31/21 A2996 RMK A01 T03110207  RH  054%=      5-min Rain = 0
KCL2 140217Z 06010KT 31/21 A2996 RMK A01 T03110208  RH  054%=      5-min Rain = 0
KCL2 140218Z 06009KT 31/21 A2996 RMK A01 T03110208  RH  054%=      5-min Rain = 0
KCL2 140219Z 06009KT 31/21 A2996 RMK A01 T03110208  RH  054%=      5-min Rain = 0
KCL2 140220Z 06007KT 31/21 A2996 RMK A01 T03100208  RH  054%=      5-min Rain = 0
KCL2 140221Z 06008KT 31/21 A2996 RMK A01 T03100208  RH  055%=      5-min Rain = 0
KCL2 140222Z 06009KT 31/21 A2997 RMK A01 T03090208  RH  055%=      5-min Rain = 0
KCL2 140223Z 07009KT 31/21 A2997 RMK A01 T03090208  RH  055%=      5-min Rain = 0
KCL2 140224Z 06009KT 31/21 A2997 RMK A01 T03090209  RH  055%=      5-min Rain = 0
KCL2 140225Z 06010KT 31/21 A2997 RMK A01 T03090209  RH  055%=      5-min Rain = 0
KCL2 140226Z 06008KT 31/21 A2997 RMK A01 T03090209  RH  055%=      5-min Rain = 0
KCL2 140227Z 07009KT 31/21 A2997 RMK A01 T03090210  RH  055%=      5-min Rain = 0
KCL2 140228Z 07008KT 31/21 A2997 RMK A01 T03090210  RH  055%=      5-min Rain = 0
KCL2 140229Z 07008KT 31/21 A2997 RMK A01 T03090209  RH  055%=      5-min Rain = 0
KCL2 140230Z 06010KT 31/21 A2997 RMK A01 T03090210  RH  055%=      5-min Rain = 0
KCL2 140231Z 06009KT 31/21 A2997 RMK A01 T03090210  RH  056%=      5-min Rain = 0
KCL2 140232Z 06010KT 31/21 A2997 RMK A01 T03090210  RH  056%=      5-min Rain = 0
KCL2 140233Z 06011KT 31/21 A2997 RMK A01 T03090210  RH  056%=      5-min Rain = 0
KCL2 140234Z 06010KT 31/21 A2997 RMK A01 T03080210  RH  056%=      5-min Rain = 0
KCL2 140235Z 06009KT 31/21 A2997 RMK A01 T03070210  RH  056%=      5-min Rain = 0
KCL2 140236Z 05009KT 31/21 A2997 RMK A01 T03070211  RH  056%=      5-min Rain = 0
KCL2 140237Z 06010KT 31/21 A2998 RMK A01 T03060210  RH  057%=      5-min Rain = 0
KCL2 140238Z 07008KT 31/21 A2998 RMK A01 T03060211  RH  057%=      5-min Rain = 0
KCL2 140239Z 08008KT 31/21 A2998 RMK A01 T03060211  RH  057%=      5-min Rain = 0
KCL2 140240Z 07007KT 31/21 A2998 RMK A01 T03060210  RH  057%=      5-min Rain = 0
KCL2 140241Z 07006KT 31/21 A2998 RMK A01 T03060211  RH  057%=      5-min Rain = 0
KCL2 140242Z 07007KT 31/21 A2998 RMK A01 T03060211  RH  057%=      5-min Rain = 0
KCL2 140243Z 07008KT 31/21 A2998 RMK A01 T03050211  RH  057%=      5-min Rain = 0
KCL2 140244Z 06007KT 31/21 A2998 RMK A01 T03050211  RH  057%=      5-min Rain = 0
KCL2 140245Z 07006KT 31/21 A2998 RMK A01 T03050211  RH  057%=      5-min Rain = 0
KCL2 140246Z 07008KT 30/21 A2998 RMK A01 T03040210  RH  057%=      5-min Rain = 0
KCL2 140247Z 07007KT 30/21 A2998 RMK A01 T03040210  RH  057%=      5-min Rain = 0
KCL2 140248Z 07008KT 30/21 A2999 RMK A01 T03040210  RH  057%=      5-min Rain = 0
KCL2 140249Z 07008KT 30/21 A2999 RMK A01 T03040210  RH  057%=      5-min Rain = 0
KCL2 140250Z 07007KT 30/21 A2999 RMK A01 T03040211  RH  057%=      5-min Rain = 0
KCL2 140251Z 07008KT 30/21 A2999 RMK A01 T03040210  RH  057%=      5-min Rain = 0
KCL2 140252Z 07008KT 30/21 A2999 RMK A01 T03040211  RH  058%=      5-min Rain = 0
KCL2 140253Z 07007KT 30/21 A2999 RMK A01 T03040211  RH  058%=      5-min Rain = 0
KCL2 140254Z 07009KT 30/21 A2999 RMK A01 T03040211  RH  058%=      5-min Rain = 0
KCL2 140255Z 07008KT 30/21 A2999 RMK A01 T03030210  RH  058%=      5-min Rain = 0
KCL2 140256Z 07009KT 30/21 A2999 RMK A01 T03030211  RH  058%=      5-min Rain = 0
KCL2 140257Z 07007KT 30/21 A2999 RMK A01 T03030212  RH  058%=      5-min Rain = 0
KCL2 140258Z 07007KT 30/21 A2999 RMK A01 T03010211  RH  059%=      5-min Rain = 0
KCL2 140259Z 06008KT 30/21 A2999 RMK A01 T03010212  RH  059%=      5-min Rain = 0
KCL2 140300Z 07007KT 30/21 A2999 RMK A01 T03010212  RH  059%=      5-min Rain = 0
KCL2 140301Z 07006KT 30/21 A2999 RMK A01 T03000212  RH  059%=      5-min Rain = 0
KCL2 140302Z 07006KT 30/21 A2999 RMK A01 T03000212  RH  059%=      5-min Rain = 0
KCL2 140303Z 07006KT 30/21 A2999 RMK A01 T02990212  RH  059%=      5-min Rain = 0
KCL2 140304Z 06007KT 30/21 A2999 RMK A01 T02990212  RH  059%=      5-min Rain = 0
KCL2 140305Z 06008KT 30/21 A2999 RMK A01 T02990212  RH  060%=      5-min Rain = 0
KCL2 140306Z 07008KT 30/21 A2999 RMK A01 T02980212  RH  060%=      5-min Rain = 0
KCL2 140307Z 07008KT 30/21 A2999 RMK A01 T02980212  RH  060%=      5-min Rain = 0
KCL2 140308Z 07007KT 30/21 A2999 RMK A01 T02980211  RH  060%=      5-min Rain = 0
KCL2 140309Z 07007KT 30/21 A2999 RMK A01 T02980211  RH  060%=      5-min Rain = 0
KCL2 140310Z 07006KT 30/21 A2999 RMK A01 T02980212  RH  060%=      5-min Rain = 0
KCL2 140311Z 07008KT 30/21 A2999 RMK A01 T02970212  RH  060%=      5-min Rain = 0
KCL2 140312Z 07007KT 30/21 A2999 RMK A01 T02970212  RH  060%=      5-min Rain = 0
KCL2 140313Z 07007KT 30/21 A2999 RMK A01 T02980212  RH  060%=      5-min Rain = 0
KCL2 140314Z 07007KT 30/21 A2999 RMK A01 T02970211  RH  060%=      5-min Rain = 0
KCL2 140315Z 07007KT 30/21 A2999 RMK A01 T02970211  RH  060%=      5-min Rain = 0
KCL2 140316Z 07007KT 30/21 A2999 RMK A01 T02970211  RH  060%=      5-min Rain = 0
KCL2 140317Z 07006KT 30/21 A2999 RMK A01 T02970211  RH  060%=      5-min Rain = 0
KCL2 140318Z 07006KT 30/21 A30 RMK A01 T02970211  RH  060%=      5-min Rain = 0
KCL2 140319Z 07007KT 30/21 A30 RMK A01 T02970211  RH  060%=      5-min Rain = 0
KCL2 140320Z 07007KT 30/21 A30 RMK A01 T02970211  RH  060%=      5-min Rain = 0
KCL2 140321Z 07008KT 30/21 A30 RMK A01 T02960211  RH  060%=      5-min Rain = 0
KCL2 140322Z 07007KT 30/21 A30 RMK A01 T02960212  RH  061%=      5-min Rain = 0
KCL2 140323Z 07006KT 30/21 A30 RMK A01 T02950212  RH  061%=      5-min Rain = 0
KCL2 140324Z 07008KT 30/21 A30 RMK A01 T02950212  RH  061%=      5-min Rain = 0
KCL2 140325Z 07008KT 30/21 A30 RMK A01 T02950211  RH  061%=      5-min Rain = 0
KCL2 140326Z 08007KT 30/21 A30 RMK A01 T02950211  RH  061%=      5-min Rain = 0
KCL2 140327Z 08006KT 30/21 A30 RMK A01 T02960211  RH  060%=      5-min Rain = 0
KCL2 140328Z 09006KT 30/21 A30 RMK A01 T02960212  RH  060%=      5-min Rain = 0
KCL2 140329Z 08006KT 30/21 A30 RMK A01 T02960212  RH  061%=      5-min Rain = 0
KCL2 140330Z 08007KT 30/21 A30 RMK A01 T02950211  RH  060%=      5-min Rain = 0
KCL2 140331Z 08006KT 30/21 A30 RMK A01 T02950210  RH  060%=      5-min Rain = 0
KCL2 140332Z 08006KT 30/21 A30 RMK A01 T02950210  RH  060%=      5-min Rain = 0
KCL2 140333Z 09006KT 30/21 A30 RMK A01 T02950211  RH  061%=      5-min Rain = 0
KCL2 140334Z 08006KT 29/21 A30 RMK A01 T02940211  RH  061%=      5-min Rain = 0
KCL2 140335Z 08006KT 29/21 A30 RMK A01 T02930212  RH  061%=      5-min Rain = 0
KCL2 140336Z 08006KT 29/21 A30 RMK A01 T02920212  RH  062%=      5-min Rain = 0
KCL2 140337Z 08006KT 29/21 A30 RMK A01 T02910211  RH  062%=      5-min Rain = 0
KCL2 140338Z 07005KT 29/21 A30 RMK A01 T02920211  RH  062%=      5-min Rain = 0
KCL2 140339Z 08005KT 29/21 A30 RMK A01 T02910210  RH  062%=      5-min Rain = 0
KCL2 140340Z 07005KT 29/21 A30 RMK A01 T02920210  RH  061%=      5-min Rain = 0
KCL2 140341Z 07005KT 29/21 A30 RMK A01 T02920210  RH  061%=      5-min Rain = 0
KCL2 140342Z 07006KT 29/21 A30 RMK A01 T02930210  RH  061%=      5-min Rain = 0
KCL2 140343Z 07006KT 29/21 A30 RMK A01 T02930210  RH  061%=      5-min Rain = 0
KCL2 140344Z 07005KT 29/21 A30 RMK A01 T02930209  RH  061%=      5-min Rain = 0
KCL2 140345Z 08005KT 29/21 A30 RMK A01 T02930209  RH  060%=      5-min Rain = 0
KCL2 140346Z 07005KT 29/21 A30 RMK A01 T02940209  RH  060%=      5-min Rain = 0
KCL2 140347Z 07005KT 29/21 A30 RMK A01 T02940209  RH  060%=      5-min Rain = 0
KCL2 140348Z 08005KT 29/21 A30 RMK A01 T02940208  RH  060%=      5-min Rain = 0
KCL2 140349Z 08004KT 29/21 A30 RMK A01 T02940208  RH  060%=      5-min Rain = 0
KCL2 140350Z 08004KT 29/21 A3001 RMK A01 T02940208  RH  060%=      5-min Rain = 0
KCL2 140351Z 07004KT 29/21 A3001 RMK A01 T02940208  RH  060%=      5-min Rain = 0
KCL2 140352Z 07005KT 29/21 A3001 RMK A01 T02940207  RH  060%=      5-min Rain = 0
KCL2 140353Z 07005KT 29/21 A3001 RMK A01 T02940206  RH  059%=      5-min Rain = 0
KCL2 140354Z 07005KT 30/21 A3001 RMK A01 T02950207  RH  059%=      5-min Rain = 0
KCL2 140355Z 07005KT 30/21 A3001 RMK A01 T02950207  RH  059%=      5-min Rain = 0
KCL2 140356Z 07005KT 29/21 A3001 RMK A01 T02940209  RH  060%=      5-min Rain = 0
KCL2 140357Z 07005KT 29/21 A3001 RMK A01 T02930209  RH  061%=      5-min Rain = 0
KCL2 140358Z 07006KT 29/21 A3001 RMK A01 T02920210  RH  061%=      5-min Rain = 0
KCL2 140359Z 07006KT 29/21 A3001 RMK A01 T02910210  RH  062%=      5-min Rain = 0
KCL2 140400Z 07006KT 29/21 A3001 RMK A01 T02900210  RH  062%=      5-min Rain = 0
KCL2 140401Z 07006KT 29/21 A3001 RMK A01 T02900210  RH  062%=      5-min Rain = 0
KCL2 140402Z 07006KT 29/21 A3001 RMK A01 T02890210  RH  062%=      5-min Rain = 0
KCL2 140403Z 07006KT 29/21 A3001 RMK A01 T02890211  RH  063%=      5-min Rain = 0
KCL2 140404Z 07007KT 29/21 A3001 RMK A01 T02880211  RH  063%=      5-min Rain = 0
KCL2 140405Z 07007KT 29/21 A3001 RMK A01 T02890211  RH  063%=      5-min Rain = 0
KCL2 140406Z 07006KT 29/21 A3001 RMK A01 T02880212  RH  063%=      5-min Rain = 0
KCL2 140407Z 07006KT 29/21 A3001 RMK A01 T02870212  RH  064%=      5-min Rain = 0
KCL2 140408Z 07007KT 29/21 A3001 RMK A01 T02870212  RH  064%=      5-min Rain = 0
KCL2 140409Z 07006KT 29/21 A3001 RMK A01 T02860212  RH  064%=      5-min Rain = 0
KCL2 140410Z 07006KT 29/21 A3001 RMK A01 T02860212  RH  064%=      5-min Rain = 0
KCL2 140411Z 06007KT 29/21 A3001 RMK A01 T02860212  RH  065%=      5-min Rain = 0
KCL2 140412Z 06007KT 29/21 A3001 RMK A01 T02850212  RH  065%=      5-min Rain = 0
KCL2 140413Z 06007KT 29/21 A3001 RMK A01 T02850212  RH  065%=      5-min Rain = 0
KCL2 140414Z 06006KT 29/21 A3001 RMK A01 T02850213  RH  065%=      5-min Rain = 0
KCL2 140415Z 06007KT 28/21 A3001 RMK A01 T02840213  RH  065%=      5-min Rain = 0
KCL2 140416Z 06007KT 28/21 A3001 RMK A01 T02830213  RH  066%=      5-min Rain = 0
KCL2 140417Z 05008KT 28/21 A3002 RMK A01 T02820213  RH  066%=      5-min Rain = 0
KCL2 140418Z 05007KT 28/21 A3002 RMK A01 T02820212  RH  066%=      5-min Rain = 0
KCL2 140419Z 05008KT 28/21 A3002 RMK A01 T02810212  RH  066%=      5-min Rain = 0
KCL2 140420Z 05007KT 28/21 A3002 RMK A01 T02810213  RH  066%=      5-min Rain = 0
KCL2 140421Z 05007KT 28/21 A3002 RMK A01 T02810212  RH  066%=      5-min Rain = 0
KCL2 140422Z 05008KT 28/21 A3002 RMK A01 T02810213  RH  066%=      5-min Rain = 0
KCL2 140423Z 05007KT 28/21 A3002 RMK A01 T02810213  RH  066%=      5-min Rain = 0
KCL2 140424Z 05008KT 28/21 A3002 RMK A01 T02810212  RH  066%=      5-min Rain = 0
KCL2 140425Z 05008KT 28/21 A3002 RMK A01 T02810212  RH  066%=      5-min Rain = 0
KCL2 140426Z 05008KT 28/21 A3002 RMK A01 T02810212  RH  066%=      5-min Rain = 0
KCL2 140427Z 05008KT 28/21 A3002 RMK A01 T02810212  RH  066%=      5-min Rain = 0
KCL2 140428Z 05008KT 28/21 A3002 RMK A01 T02810213  RH  066%=      5-min Rain = 0
KCL2 140429Z 05008KT 28/21 A3002 RMK A01 T02810213  RH  066%=      5-min Rain = 0
KCL2 140430Z 05008KT 28/21 A3002 RMK A01 T02810213  RH  067%=      5-min Rain = 0
KCL2 140431Z 05008KT 28/21 A3002 RMK A01 T02810213  RH  067%=      5-min Rain = 0
KCL2 140432Z 05008KT 28/21 A3002 RMK A01 T02810213  RH  067%=      5-min Rain = 0
KCL2 140433Z 05008KT 28/21 A3002 RMK A01 T02810213  RH  067%=      5-min Rain = 0
KCL2 140434Z 05008KT 28/21 A3002 RMK A01 T02810213  RH  067%=      5-min Rain = 0
KCL2 140435Z 05008KT 28/21 A3002 RMK A01 T02800213  RH  067%=      5-min Rain = 0
KCL2 140436Z 06008KT 28/21 A3002 RMK A01 T02800213  RH  067%=      5-min Rain = 0
KCL2 140437Z 06007KT 28/21 A3002 RMK A01 T02800213  RH  067%=      5-min Rain = 0
KCL2 140438Z 06008KT 28/21 A3002 RMK A01 T02810213  RH  067%=      5-min Rain = 0
KCL2 140439Z 06007KT 28/21 A3002 RMK A01 T02810213  RH  066%=      5-min Rain = 0
KCL2 140440Z 06007KT 28/21 A3002 RMK A01 T02810213  RH  066%=      5-min Rain = 0
KCL2 140441Z 06007KT 28/21 A3002 RMK A01 T02810212  RH  066%=      5-min Rain = 0
KCL2 140442Z 05007KT 28/21 A3002 RMK A01 T02820213  RH  066%=      5-min Rain = 0
KCL2 140443Z 05007KT 28/21 A3002 RMK A01 T02810213  RH  066%=      5-min Rain = 0
KCL2 140444Z 06007KT 28/21 A3002 RMK A01 T02810213  RH  067%=      5-min Rain = 0
KCL2 140445Z 05007KT 28/21 A3002 RMK A01 T02810213  RH  067%=      5-min Rain = 0
KCL2 140446Z 05007KT 28/21 A3002 RMK A01 T02810213  RH  067%=      5-min Rain = 0
KCL2 140447Z 05007KT 28/21 A3002 RMK A01 T02800213  RH  067%=      5-min Rain = 0
KCL2 140448Z 05007KT 28/21 A3002 RMK A01 T02800214  RH  067%=      5-min Rain = 0
KCL2 140449Z 05007KT 28/21 A3002 RMK A01 T02790214  RH  067%=      5-min Rain = 0
KCL2 140450Z 06006KT 28/21 A3002 RMK A01 T02790214  RH  068%=      5-min Rain = 0
KCL2 140451Z 06007KT 28/21 A3002 RMK A01 T02790214  RH  068%=      5-min Rain = 0
KCL2 140452Z 06007KT 28/21 A3002 RMK A01 T02790214  RH  068%=      5-min Rain = 0
KCL2 140453Z 06007KT 28/22 A3002 RMK A01 T02790215  RH  068%=      5-min Rain = 0
KCL2 140454Z 05007KT 28/21 A3002 RMK A01 T02790214  RH  068%=      5-min Rain = 0
KCL2 140455Z 05007KT 28/21 A3002 RMK A01 T02790214  RH  068%=      5-min Rain = 0
KCL2 140456Z 05007KT 28/21 A3002 RMK A01 T02790214  RH  068%=      5-min Rain = 0
KCL2 140457Z 06007KT 28/21 A3002 RMK A01 T02790214  RH  068%=      5-min Rain = 0
KCL2 140458Z 05006KT 28/21 A3002 RMK A01 T02790214  RH  068%=      5-min Rain = 0
KCL2 140459Z 06006KT 28/21 A3002 RMK A01 T02790214  RH  068%=      5-min Rain = 0

Page generated in 0.0722 seconds.